M I D A S
Marine Information and Data Acquisition System
Tripno 920 of the Zeeleeuw from 2005-06-23 06:25:49 to 2005-06-23 12:58:07
Back to CruiseResearch ActivitiesStationsMapUnderway DataData graphs

EquipmentUnitsComment
TimeDGPSUTC
LatitudeDGPSDM.mWGS84
LongitudeDGPSDM.mWGS84
TemperatureSBE03/SBE38deg celciusITS90
ConductivitySBE21S/mITS90
SalinitySBE21 Practical Salinity Units
ChlorophylAChelsea fluorimeterg/lCalibrated in Aceton
Missing or incorrect values are displayed as -999
Sea surface data collected by the RV Zeeleeuw from 2005-06-23 06:26:53 to 2005-06-23 13:07:03
                                                                                    Next 1000 lines
Time Latitude Longitude Temperature Conductivity Salinity ChlorophylA
2005-06-23 06:27:02 51°13.646 2°55.992 23.3721 5.270121 33.184226 -0.343027
2005-06-23 06:27:07 51°13.647 2°55.989 23.4185 5.270226 33.18543 -0.343027
2005-06-23 06:27:12 51°13.648 2°55.985 23.4191 5.270121 33.18514 -0.343027
2005-06-23 06:27:18 51°13.65 2°55.98 23.4188 5.270121 33.18514 -0.376736
2005-06-23 06:27:22 51°13.652 2°55.976 23.4123 5.270121 33.185598 -0.343027
2005-06-23 06:27:27 51°13.654 2°55.97 23.4099 5.270121 33.185598 -0.343027
2005-06-23 06:27:32 51°13.656 2°55.964 23.4091 5.270015 33.184394 -0.343027
2005-06-23 06:27:38 51°13.659 2°55.957 23.3937 5.270226 33.186344 -0.343027
2005-06-23 06:27:42 51°13.661 2°55.951 23.4061 5.26991 33.184562 -0.343027
2005-06-23 06:27:47 51°13.664 2°55.944 23.4026 5.26991 33.184562 -0.343027
2005-06-23 06:27:53 51°13.666 2°55.935 23.4143 5.26991 33.184562 -0.309317
2005-06-23 06:27:58 51°13.669 2°55.926 23.4113 5.26991 33.184562 -0.309317
2005-06-23 06:28:03 51°13.672 2°55.918 23.4125 5.270015 33.186222 -0.343027
2005-06-23 06:28:07 51°13.674 2°55.909 23.4151 5.270015 33.186222 -0.343027
2005-06-23 06:28:13 51°13.676 2°55.898 23.4163 5.26991 33.185476 -0.343027
2005-06-23 06:28:17 51°13.678 2°55.889 23.4174 5.269699 33.183983 -0.343027
2005-06-23 06:28:22 51°13.68 2°55.879 23.4165 5.269804 33.184272 -0.343027
2005-06-23 06:28:27 51°13.682 2°55.868 23.4164 5.269804 33.184272 -0.343027
2005-06-23 06:28:33 51°13.683 2°55.856 23.4187 5.270015 33.184851 -0.343027
2005-06-23 06:28:38 51°13.685 2°55.845 23.4171 5.269699 33.183526 -0.376736
2005-06-23 06:28:42 51°13.686 2°55.836 23.421 5.269699 33.183526 -0.343027
2005-06-23 06:28:47 51°13.687 2°55.824 23.4229 5.269804 33.184272 -0.343027
2005-06-23 06:28:53 51°13.687 2°55.812 23.4192 5.269699 33.183983 -0.343027
2005-06-23 06:28:58 51°13.687 2°55.801 23.4135 5.269699 33.183983 -0.343027
2005-06-23 06:29:03 51°13.687 2°55.791 23.4251 5.269699 33.183526 -0.343027
2005-06-23 06:29:07 51°13.687 2°55.782 23.4261 5.269804 33.184729 -0.343027
2005-06-23 06:29:13 51°13.687 2°55.771 23.434 5.269699 33.183526 -0.343027
2005-06-23 06:29:18 51°13.687 2°55.764 23.4235 5.269699 33.183983 -0.376736
2005-06-23 06:29:23 51°13.687 2°55.759 23.421 5.269488 33.18249 -0.376736
2005-06-23 06:29:27 51°13.687 2°55.755 23.4301 5.269488 33.18249 -0.376736
2005-06-23 06:29:32 51°13.687 2°55.751 23.4396 5.269699 33.183983 -0.343027
2005-06-23 06:29:37 51°13.687 2°55.748 23.44 5.269593 33.183693 -0.376736
2005-06-23 06:29:42 51°13.687 2°55.747 23.4442 5.269488 33.182947 -0.343027
2005-06-23 06:29:46 51°13.687 2°55.746 23.4678 5.269593 33.183693 -0.309317
2005-06-23 06:29:52 51°13.688 2°55.746 23.4923 5.269699 33.18444 -0.343027
2005-06-23 06:29:57 51°13.69 2°55.747 23.4991 5.269699 33.18444 -0.343027
2005-06-23 06:30:02 51°13.692 2°55.749 23.4922 5.269593 33.184608 -0.343027
2005-06-23 06:30:07 51°13.694 2°55.751 23.5014 5.269488 33.184318 -0.343027
2005-06-23 06:30:11 51°13.697 2°55.752 23.5207 5.269593 33.185065 -0.376736
2005-06-23 06:30:15 51°13.7 2°55.754 23.5038 5.269488 33.185232 -0.343027
2005-06-23 06:30:22 51°13.706 2°55.756 23.4663 5.269488 33.184775 -0.343027
2005-06-23 06:30:27 51°13.709 2°55.756 23.2686 5.269488 33.184775 -0.343027
2005-06-23 06:30:32 51°13.712 2°55.757 23.4179 5.269277 33.184196 -0.343027
2005-06-23 06:30:37 51°13.714 2°55.757 23.4352 5.269488 33.184775 -0.343027
2005-06-23 06:30:42 51°13.716 2°55.757 23.4449 5.269277 33.183282 -0.343027
2005-06-23 06:30:47 51°13.716 2°55.757 23.2723 5.269277 33.183282 -0.343027
2005-06-23 06:30:53 51°13.716 2°55.757 23.373 5.269382 33.184486 -0.343027
2005-06-23 06:30:57 51°13.715 2°55.757 23.397 5.269382 33.184486 -0.343027
2005-06-23 06:31:03 51°13.713 2°55.757 23.4301 5.269382 33.184486 -0.343027
2005-06-23 06:31:07 51°13.712 2°55.758 23.4197 5.269277 33.183282 -0.376736
2005-06-23 06:31:13 51°13.711 2°55.758 23.4308 5.269277 33.183739 -0.343027
2005-06-23 06:31:18 51°13.71 2°55.758 23.4447 5.269277 33.184196 -0.376736
2005-06-23 06:31:23 51°13.711 2°55.757 23.4692 5.269277 33.182825 -0.376736
2005-06-23 06:31:27 51°13.712 2°55.756 23.4691 5.269277 33.182825 -0.376736
2005-06-23 06:31:33 51°13.715 2°55.754 23.4709 5.269066 33.18316 -0.343027
2005-06-23 06:31:38 51°13.718 2°55.751 23.4335 5.269277 33.185111 -0.343027
2005-06-23 06:31:43 51°13.722 2°55.747 23.4102 5.269171 33.184821 -0.343027
2005-06-23 06:31:47 51°13.724 2°55.743 23.3782 5.269277 33.185568 -0.309317
2005-06-23 06:31:52 51°13.728 2°55.739 23.4224 5.269171 33.183907 -0.343027
2005-06-23 06:31:57 51°13.733 2°55.733 23.4153 5.269171 33.183907 -0.343027
2005-06-23 06:32:02 51°13.737 2°55.728 23.4081 5.269066 33.183617 -0.343027
2005-06-23 06:32:07 51°13.743 2°55.721 23.3824 5.269066 33.182703 -0.343027
2005-06-23 06:32:12 51°13.749 2°55.714 23.3801 5.269066 33.182246 -0.376736
2005-06-23 06:32:17 51°13.755 2°55.707 23.3768 5.269277 33.183739 -0.376736
2005-06-23 06:32:22 51°13.762 2°55.698 23.3449 5.269066 33.18316 -0.343027
2005-06-23 06:32:27 51°13.77 2°55.689 23.2892 5.269066 33.18316 -0.343027
2005-06-23 06:32:32 51°13.778 2°55.68 23.259 5.269066 33.183617 -0.343027
2005-06-23 06:32:37 51°13.785 2°55.673 23.253 5.269066 33.184532 -0.376736
2005-06-23 06:32:42 51°13.794 2°55.664 23.2399 5.269066 33.184532 -0.309317
2005-06-23 06:32:47 51°13.803 2°55.655 23.2919 5.26896 33.184242 -0.343027
2005-06-23 06:32:52 51°13.811 2°55.647 23.2723 5.26896 33.185157 -0.343027
2005-06-23 06:32:57 51°13.821 2°55.639 23.3301 5.26896 33.185157 -0.343027
2005-06-23 06:33:02 51°13.83 2°55.631 23.2867 5.268855 33.184867 -0.376736
2005-06-23 06:33:07 51°13.842 2°55.622 23.2999 5.268855 33.184867 -0.376736
2005-06-23 06:33:12 51°13.852 2°55.614 23.2982 5.268855 33.184867 -0.343027
2005-06-23 06:33:17 51°13.861 2°55.607 23.3151 5.268855 33.184867 -0.376736
2005-06-23 06:33:22 51°13.872 2°55.6 23.3357 5.26896 33.185614 -0.343027
2005-06-23 06:33:27 51°13.884 2°55.592 23.3452 5.26896 33.185614 -0.343027
2005-06-23 06:33:31 51°13.892 2°55.585 23.3425 5.268749 33.184121 -0.309317
2005-06-23 06:33:37 51°13.906 2°55.576 23.3373 5.268749 33.184121 -0.376736
2005-06-23 06:33:42 51°13.916 2°55.569 23.3358 5.268644 33.183374 -0.309317
2005-06-23 06:33:46 51°13.925 2°55.563 23.343 5.268749 33.184578 -0.343027
2005-06-23 06:33:51 51°13.937 2°55.555 23.3643 5.268644 33.183831 -0.376736
2005-06-23 06:33:57 51°13.95 2°55.545 23.3736 5.268644 33.183831 -0.376736
2005-06-23 06:34:02 51°13.961 2°55.538 23.369 5.268749 33.185035 -0.343027
2005-06-23 06:34:07 51°13.973 2°55.529 23.3651 5.268644 33.183831 -0.343027
2005-06-23 06:34:12 51°13.984 2°55.522 23.3629 5.268644 33.183831 -0.343027
2005-06-23 06:34:17 51°13.996 2°55.514 23.3733 5.268644 33.183374 -0.343027
2005-06-23 06:34:22 51°14.006 2°55.507 23.3714 5.268644 33.182917 -0.343027
2005-06-23 06:34:27 51°14.018 2°55.499 23.3523 5.268644 33.182917 -0.343027
2005-06-23 06:34:31 51°14.028 2°55.492 23.3454 5.268538 33.182627 -0.343027
2005-06-23 06:34:37 51°14.042 2°55.483 23.356 5.268538 33.182627 -0.376736
2005-06-23 06:34:42 51°14.054 2°55.477 23.3925 5.268538 33.183084 -0.376736
2005-06-23 06:34:47 51°14.066 2°55.47 23.402 5.268433 33.183252 -0.343027
2005-06-23 06:34:51 51°14.075 2°55.464 23.4162 5.268433 33.183709 -0.343027
2005-06-23 06:34:57 51°14.087 2°55.455 23.4091 5.268433 33.183709 -0.343027
2005-06-23 06:35:02 51°14.098 2°55.446 23.4204 5.268433 33.183709 -0.343027
2005-06-23 06:35:07 51°14.11 2°55.437 23.4044 5.268433 33.183709 -0.343027
2005-06-23 06:35:11 51°14.12 2°55.429 23.4084 5.268327 33.182506 -0.343027
2005-06-23 06:35:17 51°14.134 2°55.419 23.4088 5.268327 33.182506 -0.343027
2005-06-23 06:35:22 51°14.145 2°55.409 23.4235 5.268327 33.182506 -0.343027
2005-06-23 06:35:27 51°14.157 2°55.399 23.4117 5.268327 33.182506 -0.343027
2005-06-23 06:35:32 51°14.167 2°55.389 23.4138 5.268433 33.183709 -0.343027
2005-06-23 06:35:37 51°14.179 2°55.376 23.4392 5.268433 33.183709 -0.343027
2005-06-23 06:35:42 51°14.189 2°55.365 23.4521 5.268327 33.182963 -0.343027
2005-06-23 06:35:47 51°14.201 2°55.351 23.3961 5.268222 33.183131 -0.343027
2005-06-23 06:35:52 51°14.211 2°55.338 23.3454 5.268327 33.18342 -0.309317
2005-06-23 06:35:57 51°14.222 2°55.323 23.391 5.268327 33.18342 -0.309317
2005-06-23 06:36:02 51°14.232 2°55.31 23.4613 5.268327 33.18342 -0.376736
2005-06-23 06:36:07 51°14.242 2°55.295 23.4055 5.268327 33.182963 -0.343027
2005-06-23 06:36:11 51°14.251 2°55.281 23.3959 5.268116 33.182384 -0.343027
2005-06-23 06:36:17 51°14.263 2°55.261 23.4104 5.268222 33.183131 -0.343027
2005-06-23 06:36:22 51°14.272 2°55.246 23.4084 5.268222 33.183588 -0.376736
2005-06-23 06:36:27 51°14.282 2°55.227 23.384 5.268222 33.183588 -0.376736
2005-06-23 06:36:31 51°14.289 2°55.214 23.309 5.268222 33.183131 -0.343027
2005-06-23 06:36:37 51°14.3 2°55.193 23.364 5.268116 33.182384 -0.343027
2005-06-23 06:36:42 51°14.31 2°55.174 23.3522 5.268116 33.181927 -0.343027
2005-06-23 06:36:46 51°14.317 2°55.159 23.3216 5.268222 33.183131 -0.309317
2005-06-23 06:36:51 51°14.327 2°55.14 23.3123 5.268116 33.182384 -0.343027
2005-06-23 06:36:57 51°14.338 2°55.117 23.3094 5.268116 33.182384 -0.343027
2005-06-23 06:37:03 51°14.35 2°55.094 23.3165 5.268011 33.182094 -0.343027
2005-06-23 06:37:07 51°14.357 2°55.079 23.252 5.268222 33.184045 -0.343027
2005-06-23 06:37:11 51°14.367 2°55.062 23.2677 5.268011 33.182552 -0.343027
2005-06-23 06:37:17 51°14.379 2°55.04 23.3016 5.268011 33.182552 -0.343027
2005-06-23 06:37:22 51°14.388 2°55.023 23.2631 5.268116 33.182841 -0.343027
2005-06-23 06:37:27 51°14.401 2°55.002 23.214 5.268116 33.182841 -0.343027
2005-06-23 06:37:31 51°14.411 2°54.987 23.2866 5.268011 33.182552 -0.343027
2005-06-23 06:37:37 51°14.426 2°54.966 23.3487 5.268011 33.182094 -0.343027
2005-06-23 06:37:42 51°14.438 2°54.949 23.3612 5.268116 33.183298 -0.343027
2005-06-23 06:37:47 51°14.452 2°54.927 23.4043 5.267905 33.182719 -0.343027
2005-06-23 06:37:51 51°14.461 2°54.913 23.3427 5.268011 33.183923 -0.343027
2005-06-23 06:37:57 51°14.476 2°54.887 23.2646 5.268011 33.183923 -0.343027
2005-06-23 06:38:02 51°14.488 2°54.866 23.2614 5.2678 33.183802 -0.343027
2005-06-23 06:38:07 51°14.503 2°54.843 23.2908 5.268011 33.183923 -0.376736
2005-06-23 06:38:12 51°14.515 2°54.825 23.2557 5.268011 33.183009 -0.343027
2005-06-23 06:38:17 51°14.529 2°54.804 23.3038 5.2678 33.181515 -0.376736
2005-06-23 06:38:21 51°14.541 2°54.786 23.3449 5.267905 33.183177 -0.376736
2005-06-23 06:38:25 51°14.552 2°54.771 23.3269 5.267905 33.183177 -0.376736
2005-06-23 06:38:31 51°14.569 2°54.748 23.3196 5.2678 33.18243 -0.343027
2005-06-23 06:38:37 51°14.586 2°54.725 23.2783 5.2678 33.183344 -0.376736
2005-06-23 06:38:42 51°14.599 2°54.708 23.2744 5.2678 33.183802 -0.343027
2005-06-23 06:38:46 51°14.611 2°54.694 23.2696 5.2678 33.182887 -0.376736
2005-06-23 06:38:51 51°14.627 2°54.675 23.3224 5.267589 33.181394 -0.343027
2005-06-23 06:38:57 51°14.645 2°54.656 23.323 5.267589 33.181394 -0.343027
2005-06-23 06:39:02 51°14.661 2°54.64 23.3539 5.267694 33.18214 -0.343027
2005-06-23 06:39:07 51°14.676 2°54.624 23.3278 5.267589 33.181394 -0.376736
2005-06-23 06:39:12 51°14.69 2°54.609 23.3838 5.267483 33.181104 -0.376736
2005-06-23 06:39:17 51°14.705 2°54.593 23.3311 5.2678 33.183802 -0.376736
2005-06-23 06:39:22 51°14.722 2°54.575 23.3844 5.267589 33.182308 -0.376736
2005-06-23 06:39:27 51°14.737 2°54.558 23.3609 5.267589 33.182308 -0.376736
2005-06-23 06:39:31 51°14.748 2°54.543 23.3672 5.267589 33.182765 -0.376736
2005-06-23 06:39:37 51°14.764 2°54.523 23.3525 5.267589 33.182765 -0.343027
2005-06-23 06:39:42 51°14.78 2°54.501 23.3756 5.267589 33.183223 -0.343027
2005-06-23 06:39:47 51°14.794 2°54.482 23.3358 5.267589 33.182308 -0.376736
2005-06-23 06:39:51 51°14.805 2°54.466 23.3315 5.267483 33.182019 -0.343027
2005-06-23 06:39:57 51°14.821 2°54.442 23.3118 5.267483 33.182019 -0.343027
2005-06-23 06:40:02 51°14.833 2°54.423 23.2733 5.267483 33.182019 -0.343027
2005-06-23 06:40:07 51°14.848 2°54.401 23.2605 5.267589 33.182308 -0.343027
2005-06-23 06:40:11 51°14.859 2°54.385 23.232 5.267483 33.182019 -0.376736
2005-06-23 06:40:17 51°14.876 2°54.362 23.2194 5.267589 33.183223 -0.343027
2005-06-23 06:40:22 51°14.89 2°54.344 23.2742 5.267483 33.181561 -0.343027
2005-06-23 06:40:27 51°14.903 2°54.329 23.2758 5.267483 33.181561 -0.343027
2005-06-23 06:40:32 51°14.919 2°54.311 23.283 5.267272 33.180525 -0.343027
2005-06-23 06:40:37 51°14.935 2°54.296 23.2826 5.267378 33.181729 -0.376736
2005-06-23 06:40:41 51°14.947 2°54.285 23.3099 5.267483 33.182019 -0.376736
2005-06-23 06:40:47 51°14.965 2°54.267 23.2969 5.267483 33.182476 -0.376736
2005-06-23 06:40:52 51°14.98 2°54.253 23.2896 5.267378 33.182186 -0.343027
2005-06-23 06:40:57 51°14.994 2°54.239 23.2974 5.267378 33.182186 -0.343027
2005-06-23 06:41:02 51°15.008 2°54.226 23.3058 5.267272 33.181897 -0.343027
2005-06-23 06:41:06 51°15.021 2°54.213 23.3206 5.267272 33.181897 -0.343027
2005-06-23 06:41:11 51°15.036 2°54.198 23.3373 5.267272 33.181897 -0.343027
2005-06-23 06:41:17 51°15.053 2°54.179 23.3462 5.267272 33.181897 -0.343027
2005-06-23 06:41:22 51°15.068 2°54.163 23.3182 5.267272 33.180982 -0.376736
2005-06-23 06:41:25 51°15.076 2°54.153 23.3593 5.267272 33.180982 -0.376736
2005-06-23 06:41:32 51°15.096 2°54.13 23.3722 5.267272 33.182354 -0.376736
2005-06-23 06:41:36 51°15.106 2°54.117 23.3712 5.267272 33.181897 -0.376736
2005-06-23 06:41:42 51°15.123 2°54.093 23.3852 5.267167 33.182065 -0.343027
2005-06-23 06:41:47 51°15.136 2°54.073 23.3365 5.267378 33.184016 -0.376736
2005-06-23 06:41:51 51°15.147 2°54.057 23.324 5.267061 33.181775 -0.343027
2005-06-23 06:41:57 51°15.161 2°54.036 23.297 5.267061 33.181775 -0.343027
2005-06-23 06:42:02 51°15.176 2°54.013 23.2624 5.267272 33.182354 -0.343027
2005-06-23 06:42:06 51°15.185 2°54 23.2737 5.267167 33.182065 -0.343027
2005-06-23 06:42:12 51°15.203 2°53.974 23.243 5.267167 33.182065 -0.376736
2005-06-23 06:42:17 51°15.215 2°53.958 23.2092 5.267061 33.180861 -0.376736
2005-06-23 06:42:22 51°15.232 2°53.939 23.2526 5.267061 33.180403 -0.376736
2005-06-23 06:42:27 51°15.245 2°53.925 23.2581 5.267061 33.180403 -0.376736
2005-06-23 06:42:32 51°15.263 2°53.909 23.3079 5.267061 33.180861 -0.343027
2005-06-23 06:42:37 51°15.279 2°53.896 23.3137 5.267061 33.181318 -0.343027
2005-06-23 06:42:41 51°15.292 2°53.885 23.3203 5.267061 33.181775 -0.376736
2005-06-23 06:42:46 51°15.306 2°53.874 23.349 5.267167 33.183437 -0.376736
2005-06-23 06:42:52 51°15.328 2°53.857 23.3449 5.266955 33.181943 -0.376736
2005-06-23 06:42:57 51°15.344 2°53.844 23.3552 5.266955 33.181943 -0.376736
2005-06-23 06:43:02 51°15.359 2°53.831 23.3738 5.267061 33.18269 -0.376736
2005-06-23 06:43:06 51°15.373 2°53.818 23.3775 5.266955 33.182401 -0.343027
2005-06-23 06:43:11 51°15.389 2°53.803 23.3409 5.26685 33.181654 -0.343027
2005-06-23 06:43:17 51°15.408 2°53.783 23.3499 5.266744 33.181364 -0.376736
2005-06-23 06:43:22 51°15.421 2°53.768 23.3352 5.266956 33.182858 -0.343027
2005-06-23 06:43:27 51°15.437 2°53.751 23.3213 5.266956 33.182858 -0.343027
2005-06-23 06:43:32 51°15.454 2°53.732 23.3155 5.26685 33.182111 -0.376736
2005-06-23 06:43:37 51°15.469 2°53.715 23.2929 5.266955 33.182401 -0.376736
2005-06-23 06:43:42 51°15.485 2°53.699 23.3198 5.266955 33.181943 -0.410446
2005-06-23 06:43:47 51°15.501 2°53.682 23.304 5.266955 33.181486 -0.376736
2005-06-23 06:43:51 51°15.513 2°53.669 23.3234 5.26685 33.181196 -0.343027
2005-06-23 06:43:56 51°15.528 2°53.655 23.3278 5.26685 33.181196 -0.343027
2005-06-23 06:44:02 51°15.549 2°53.635 23.3364 5.26685 33.182111 -0.343027
2005-06-23 06:44:07 51°15.565 2°53.619 23.3362 5.266639 33.181075 -0.376736
2005-06-23 06:44:12 51°15.582 2°53.604 23.3708 5.266744 33.181822 -0.343027
2005-06-23 06:44:17 51°15.596 2°53.59 23.3514 5.26685 33.182568 -0.376736
2005-06-23 06:44:22 51°15.612 2°53.574 23.3666 5.266744 33.182279 -0.376736
2005-06-23 06:44:27 51°15.629 2°53.555 23.3425 5.266744 33.182279 -0.376736
2005-06-23 06:44:32 51°15.645 2°53.538 23.3523 5.266744 33.181822 -0.376736
2005-06-23 06:44:37 51°15.66 2°53.521 23.3503 5.266639 33.180617 -0.376736
2005-06-23 06:44:42 51°15.676 2°53.503 23.3328 5.266533 33.180328 -0.376736
2005-06-23 06:44:47 51°15.692 2°53.486 23.3592 5.266639 33.181075 -0.343027
2005-06-23 06:44:52 51°15.707 2°53.469 23.3425 5.266639 33.180617 -0.376736
2005-06-23 06:44:57 51°15.721 2°53.454 23.322 5.266639 33.180617 -0.376736
2005-06-23 06:45:02 51°15.739 2°53.435 23.3471 5.266639 33.181532 -0.376736
2005-06-23 06:45:06 51°15.751 2°53.421 23.3394 5.266639 33.181532 -0.376736
2005-06-23 06:45:11 51°15.767 2°53.405 23.3522 5.266533 33.1817 -0.376736
2005-06-23 06:45:17 51°15.785 2°53.386 23.3532 5.266428 33.180953 -0.343027
2005-06-23 06:45:22 51°15.802 2°53.367 23.3655 5.266533 33.181243 -0.343027
2005-06-23 06:45:25 51°15.812 2°53.358 23.3689 5.266533 33.181243 -0.343027
2005-06-23 06:45:33 51°15.835 2°53.332 23.3564 5.266322 33.179749 -0.343027
2005-06-23 06:45:37 51°15.85 2°53.317 23.3647 5.266428 33.180953 -0.343027
2005-06-23 06:45:42 51°15.864 2°53.301 23.3668 5.266428 33.180953 -0.343027
2005-06-23 06:45:46 51°15.878 2°53.286 23.3672 5.266533 33.181243 -0.376736
2005-06-23 06:45:51 51°15.894 2°53.268 23.3383 5.266322 33.180206 -0.376736
2005-06-23 06:45:57 51°15.913 2°53.248 23.3175 5.266322 33.180206 -0.376736
2005-06-23 06:46:01 51°15.925 2°53.234 23.3528 5.266322 33.180206 -0.376736
2005-06-23 06:46:07 51°15.944 2°53.214 23.3713 5.266217 33.179459 -0.343027
2005-06-23 06:46:12 51°15.959 2°53.199 23.339 5.266111 33.17917 -0.343027
2005-06-23 06:46:17 51°15.974 2°53.182 23.3719 5.266111 33.178712 -0.343027
2005-06-23 06:46:22 51°15.992 2°53.164 23.3457 5.266322 33.180664 -0.376736
2005-06-23 06:46:27 51°16.008 2°53.147 23.3644 5.266322 33.180664 -0.376736
2005-06-23 06:46:31 51°16.02 2°53.133 23.3648 5.266533 33.182615 -0.376736
2005-06-23 06:46:37 51°16.038 2°53.115 23.3346 5.266533 33.183072 -0.376736
2005-06-23 06:46:42 51°16.055 2°53.096 23.3556 5.266322 33.182036 -0.343027
2005-06-23 06:46:47 51°16.071 2°53.079 23.3372 5.266322 33.181578 -0.376736
2005-06-23 06:46:52 51°16.087 2°53.063 23.3526 5.266111 33.179627 -0.376736
2005-06-23 06:46:57 51°16.103 2°53.046 23.3319 5.266111 33.179627 -0.376736
2005-06-23 06:47:02 51°16.117 2°53.031 23.3377 5.266217 33.180831 -0.376736
2005-06-23 06:47:06 51°16.131 2°53.016 23.3244 5.266111 33.179627 -0.376736
2005-06-23 06:47:12 51°16.15 2°52.997 23.3331 5.266111 33.180084 -0.376736
2005-06-23 06:47:17 51°16.164 2°52.983 23.3566 5.266111 33.180084 -0.343027
2005-06-23 06:47:22 51°16.182 2°52.965 23.3533 5.266111 33.180084 -0.376736
2005-06-23 06:47:27 51°16.198 2°52.949 23.3646 5.266111 33.180084 -0.376736
2005-06-23 06:47:31 51°16.211 2°52.936 23.3383 5.266111 33.180999 -0.376736
2005-06-23 06:47:37 51°16.231 2°52.917 23.3492 5.266006 33.180252 -0.343027
2005-06-23 06:47:42 51°16.245 2°52.903 23.351 5.266111 33.180542 -0.376736
2005-06-23 06:47:47 51°16.261 2°52.887 23.3671 5.266006 33.180252 -0.376736
2005-06-23 06:47:52 51°16.278 2°52.869 23.3282 5.266217 33.181289 -0.343027
2005-06-23 06:47:57 51°16.294 2°52.853 23.3606 5.266217 33.181289 -0.343027
2005-06-23 06:48:02 51°16.309 2°52.839 23.347 5.266111 33.180999 -0.376736
2005-06-23 06:48:06 51°16.323 2°52.824 23.3388 5.266006 33.18071 -0.343027
2005-06-23 06:48:11 51°16.34 2°52.809 23.3262 5.266111 33.180542 -0.376736
2005-06-23 06:48:16 51°16.356 2°52.794 23.3486 5.265795 33.179216 -0.376736
2005-06-23 06:48:21 51°16.372 2°52.778 23.3608 5.265795 33.178758 -0.376736
2005-06-23 06:48:27 51°16.392 2°52.76 23.3708 5.265795 33.178758 -0.376736
2005-06-23 06:48:32 51°16.408 2°52.745 23.3556 5.2659 33.179963 -0.376736
2005-06-23 06:48:37 51°16.424 2°52.73 23.3584 5.266006 33.181167 -0.343027
2005-06-23 06:48:41 51°16.437 2°52.718 23.3501 5.2659 33.18042 -0.343027
2005-06-23 06:48:47 51°16.457 2°52.7 23.3655 5.265795 33.180131 -0.376736
2005-06-23 06:48:52 51°16.473 2°52.684 23.3477 5.2659 33.180878 -0.376736
2005-06-23 06:48:57 51°16.488 2°52.671 23.3453 5.2659 33.180878 -0.376736
2005-06-23 06:49:02 51°16.504 2°52.656 23.3649 5.265795 33.180131 -0.376736
2005-06-23 06:49:07 51°16.522 2°52.639 23.3471 5.2659 33.18042 -0.343027
2005-06-23 06:49:12 51°16.538 2°52.625 23.3593 5.265795 33.180131 -0.343027
2005-06-23 06:49:17 51°16.555 2°52.61 23.3433 5.265795 33.180131 -0.376736
2005-06-23 06:49:22 51°16.569 2°52.597 23.3631 5.265689 33.179841 -0.343027
2005-06-23 06:49:27 51°16.587 2°52.58 23.3369 5.265689 33.179841 -0.343027
2005-06-23 06:49:32 51°16.603 2°52.566 23.319 5.265584 33.178637 -0.376736
2005-06-23 06:49:37 51°16.62 2°52.553 23.3047 5.265584 33.179094 -0.376736
2005-06-23 06:49:42 51°16.635 2°52.542 23.346 5.265795 33.180131 -0.376736
2005-06-23 06:49:47 51°16.651 2°52.531 23.3563 5.265689 33.179384 -0.376736
2005-06-23 06:49:52 51°16.67 2°52.519 23.3736 5.265689 33.180299 -0.376736
2005-06-23 06:49:57 51°16.687 2°52.508 23.3724 5.265689 33.180299 -0.376736
2005-06-23 06:50:02 51°16.702 2°52.497 23.3847 5.265584 33.179094 -0.376736
2005-06-23 06:50:06 51°16.717 2°52.487 23.372 5.265689 33.180299 -0.376736
2005-06-23 06:50:11 51°16.733 2°52.476 23.3552 5.265689 33.180756 -0.343027
2005-06-23 06:50:17 51°16.752 2°52.461 23.3714 5.265584 33.180009 -0.376736
2005-06-23 06:50:21 51°16.765 2°52.452 23.3805 5.265584 33.180009 -0.376736
2005-06-23 06:50:27 51°16.783 2°52.438 23.3491 5.265584 33.180009 -0.376736
2005-06-23 06:50:32 51°16.799 2°52.426 23.364 5.265478 33.17972 -0.376736
2005-06-23 06:50:36 51°16.814 2°52.414 23.3369 5.265584 33.180009 -0.343027
2005-06-23 06:50:41 51°16.83 2°52.402 23.3431 5.265584 33.180009 -0.376736
2005-06-23 06:50:47 51°16.849 2°52.387 23.3364 5.265478 33.178805 -0.376736
2005-06-23 06:50:52 51°16.866 2°52.374 23.3474 5.265478 33.179262 -0.376736
2005-06-23 06:50:57 51°16.882 2°52.363 23.3394 5.265478 33.179262 -0.376736
2005-06-23 06:51:01 51°16.895 2°52.354 23.3349 5.265478 33.179262 -0.343027
2005-06-23 06:51:07 51°16.915 2°52.341 23.3351 5.265373 33.178973 -0.343027
2005-06-23 06:51:11 51°16.928 2°52.332 23.3688 5.265267 33.178683 -0.376736
2005-06-23 06:51:17 51°16.946 2°52.32 23.3525 5.265478 33.180177 -0.343027
2005-06-23 06:51:22 51°16.965 2°52.308 23.3811 5.265478 33.180635 -0.376736
2005-06-23 06:51:27 51°16.981 2°52.297 23.4004 5.265478 33.180635 -0.376736
2005-06-23 06:51:32 51°16.998 2°52.286 23.3957 5.265478 33.17972 -0.376736
2005-06-23 06:51:37 51°17.014 2°52.274 23.3642 5.265162 33.177936 -0.376736
2005-06-23 06:51:41 51°17.027 2°52.265 23.3456 5.265478 33.180635 -0.376736
2005-06-23 06:51:47 51°17.047 2°52.249 23.3349 5.265478 33.180177 -0.343027
2005-06-23 06:51:51 51°17.06 2°52.24 23.3214 5.265373 33.17943 -0.410446
2005-06-23 06:51:57 51°17.08 2°52.226 23.3276 5.265373 33.17943 -0.410446
2005-06-23 06:52:02 51°17.097 2°52.215 23.3551 5.265267 33.17914 -0.376736
2005-06-23 06:52:06 51°17.109 2°52.208 23.3627 5.265373 33.17943 -0.376736
2005-06-23 06:52:12 51°17.131 2°52.195 23.3478 5.265267 33.17914 -0.376736
2005-06-23 06:52:17 51°17.148 2°52.186 23.3675 5.265373 33.179887 -0.376736
2005-06-23 06:52:22 51°17.165 2°52.176 23.3723 5.265162 33.179766 -0.376736
2005-06-23 06:52:27 51°17.182 2°52.167 23.4001 5.265162 33.179766 -0.376736
2005-06-23 06:52:31 51°17.196 2°52.16 23.3943 5.265267 33.180055 -0.376736
2005-06-23 06:52:37 51°17.217 2°52.148 23.3922 5.265267 33.180513 -0.376736
2005-06-23 06:52:42 51°17.234 2°52.138 23.382 5.265267 33.180513 -0.376736
2005-06-23 06:52:46 51°17.245 2°52.13 23.3791 5.265056 33.179476 -0.376736
2005-06-23 06:52:52 51°17.267 2°52.116 23.4003 5.265162 33.179766 -0.376736
2005-06-23 06:52:57 51°17.284 2°52.105 23.3482 5.265162 33.179766 -0.376736
2005-06-23 06:53:02 51°17.299 2°52.095 23.3758 5.264951 33.177814 -0.376736
2005-06-23 06:53:07 51°17.318 2°52.083 23.3651 5.265267 33.180055 -0.376736
2005-06-23 06:53:12 51°17.335 2°52.073 23.3759 5.265373 33.180802 -0.343027
2005-06-23 06:53:17 51°17.35 2°52.064 23.37 5.265056 33.178561 -0.376736
2005-06-23 06:53:22 51°17.367 2°52.053 23.3779 5.265162 33.179308 -0.376736
2005-06-23 06:53:27 51°17.385 2°52.043 23.3784 5.265162 33.179308 -0.376736
2005-06-23 06:53:31 51°17.399 2°52.035 23.3852 5.265056 33.179476 -0.376736
2005-06-23 06:53:37 51°17.417 2°52.023 23.417 5.265056 33.179019 -0.410446
2005-06-23 06:53:42 51°17.435 2°52.012 23.4249 5.264845 33.17844 -0.376736
2005-06-23 06:53:47 51°17.451 2°51.998 23.4032 5.265162 33.181138 -0.343027
2005-06-23 06:53:52 51°17.466 2°51.985 23.4009 5.264845 33.179812 -0.376736
2005-06-23 06:53:57 51°17.482 2°51.968 23.3774 5.264845 33.179812 -0.376736
2005-06-23 06:54:02 51°17.497 2°51.951 23.3707 5.264845 33.18027 -0.343027
2005-06-23 06:54:06 51°17.509 2°51.937 23.3796 5.264951 33.180102 -0.376736
2005-06-23 06:54:12 51°17.526 2°51.915 23.4256 5.264951 33.179187 -0.410446
2005-06-23 06:54:17 51°17.54 2°51.897 23.4281 5.264951 33.178729 -0.376736
2005-06-23 06:54:22 51°17.553 2°51.876 23.3747 5.264845 33.178897 -0.376736
2005-06-23 06:54:27 51°17.565 2°51.854 23.4008 5.264845 33.178897 -0.376736
2005-06-23 06:54:32 51°17.577 2°51.831 23.3803 5.265162 33.181596 -0.343027
2005-06-23 06:54:37 51°17.589 2°51.808 23.3951 5.264845 33.179812 -0.343027
2005-06-23 06:54:42 51°17.6 2°51.784 23.4168 5.264951 33.180102 -0.376736
2005-06-23 06:54:46 51°17.607 2°51.767 23.3725 5.264845 33.179355 -0.376736
2005-06-23 06:54:51 51°17.618 2°51.739 23.4072 5.26474 33.179065 -0.376736
2005-06-23 06:54:57 51°17.629 2°51.708 23.3504 5.26474 33.179065 -0.376736
2005-06-23 06:55:02 51°17.637 2°51.681 23.3874 5.265056 33.180849 -0.376736
2005-06-23 06:55:05 51°17.643 2°51.666 23.3759 5.264845 33.179812 -0.376736
2005-06-23 06:55:12 51°17.654 2°51.628 23.3737 5.264845 33.179355 -0.376736
2005-06-23 06:55:16 51°17.66 2°51.609 23.3599 5.265056 33.180849 -0.376736
2005-06-23 06:55:22 51°17.67 2°51.573 23.3615 5.264845 33.179355 -0.343027
2005-06-23 06:55:27 51°17.678 2°51.547 23.3623 5.264845 33.179355 -0.343027
2005-06-23 06:55:32 51°17.687 2°51.52 23.3441 5.264951 33.179644 -0.376736
2005-06-23 06:55:37 51°17.695 2°51.496 23.342 5.264845 33.179355 -0.376736
2005-06-23 06:55:42 51°17.704 2°51.467 23.3569 5.264845 33.178897 -0.376736
2005-06-23 06:55:47 51°17.714 2°51.44 23.3593 5.26474 33.179065 -0.376736
2005-06-23 06:55:52 51°17.722 2°51.416 23.3587 5.26474 33.179065 -0.376736
2005-06-23 06:55:57 51°17.731 2°51.39 23.372 5.26474 33.179065 -0.376736
2005-06-23 06:56:02 51°17.742 2°51.362 23.397 5.26474 33.179065 -0.376736
2005-06-23 06:56:07 51°17.752 2°51.336 23.3839 5.264634 33.179233 -0.410446
2005-06-23 06:56:11 51°17.759 2°51.315 23.3735 5.26474 33.17998 -0.376736
2005-06-23 06:56:17 51°17.771 2°51.283 23.3824 5.264634 33.179233 -0.376736
2005-06-23 06:56:22 51°17.779 2°51.258 23.4111 5.264634 33.179691 -0.410446
2005-06-23 06:56:27 51°17.789 2°51.229 23.3932 5.264634 33.179691 -0.410446
2005-06-23 06:56:32 51°17.798 2°51.201 23.4026 5.264634 33.179233 -0.376736
2005-06-23 06:56:37 51°17.807 2°51.174 23.4009 5.26474 33.180438 -0.376736
2005-06-23 06:56:42 51°17.815 2°51.149 23.4001 5.264529 33.179401 -0.376736
2005-06-23 06:56:47 51°17.823 2°51.122 23.3607 5.26474 33.180895 -0.376736
2005-06-23 06:56:51 51°17.832 2°51.096 23.3708 5.264529 33.179401 -0.376736
2005-06-23 06:56:57 51°17.842 2°51.063 23.3801 5.264529 33.179401 -0.376736
2005-06-23 06:57:02 51°17.85 2°51.038 23.3804 5.264529 33.179401 -0.376736
2005-06-23 06:57:06 51°17.858 2°51.013 23.3654 5.264423 33.178197 -0.376736
2005-06-23 06:57:11 51°17.868 2°50.985 23.3871 5.264529 33.179401 -0.376736
2005-06-23 06:57:17 51°17.88 2°50.952 23.3778 5.264423 33.178654 -0.410446
2005-06-23 06:57:22 51°17.889 2°50.925 23.399 5.264423 33.178654 -0.410446
2005-06-23 06:57:27 51°17.899 2°50.897 23.4023 5.264423 33.178654 -0.410446
2005-06-23 06:57:32 51°17.909 2°50.87 23.4178 5.264529 33.179859 -0.376736
2005-06-23 06:57:37 51°17.918 2°50.842 23.4181 5.264423 33.179569 -0.410446
2005-06-23 06:57:42 51°17.927 2°50.816 23.403 5.264318 33.178822 -0.376736
2005-06-23 06:57:47 51°17.937 2°50.785 23.4026 5.264318 33.178822 -0.343027
2005-06-23 06:57:52 51°17.945 2°50.76 23.3961 5.264318 33.17928 -0.410446
2005-06-23 06:57:57 51°17.954 2°50.729 23.3968 5.264318 33.17928 -0.410446
2005-06-23 06:58:02 51°17.962 2°50.703 23.4077 5.264318 33.178822 -0.376736
2005-06-23 06:58:07 51°17.972 2°50.672 23.4096 5.264423 33.179112 -0.376736
2005-06-23 06:58:11 51°17.979 2°50.649 23.4059 5.264423 33.179569 -0.376736
2005-06-23 06:58:17 51°17.99 2°50.615 23.403 5.264318 33.178822 -0.376736
2005-06-23 06:58:22 51°17.997 2°50.589 23.3999 5.264318 33.17928 -0.376736
2005-06-23 06:58:27 51°18.007 2°50.558 23.4114 5.264318 33.17928 -0.376736
2005-06-23 06:58:32 51°18.016 2°50.529 23.4036 5.264212 33.17899 -0.376736
2005-06-23 06:58:37 51°18.024 2°50.501 23.393 5.264318 33.179737 -0.376736
2005-06-23 06:58:42 51°18.033 2°50.472 23.4113 5.264212 33.17899 -0.376736
2005-06-23 06:58:46 51°18.04 2°50.45 23.4109 5.264212 33.17899 -0.376736
2005-06-23 06:58:52 51°18.051 2°50.416 23.412 5.264212 33.17899 -0.376736
2005-06-23 06:58:57 51°18.06 2°50.387 23.4131 5.264212 33.17899 -0.376736
2005-06-23 06:59:02 51°18.067 2°50.362 23.4049 5.264107 33.178243 -0.376736
2005-06-23 06:59:06 51°18.074 2°50.339 23.4168 5.264318 33.180195 -0.376736
2005-06-23 06:59:12 51°18.085 2°50.304 23.4204 5.264212 33.179448 -0.376736
2005-06-23 06:59:17 51°18.095 2°50.273 23.4181 5.264107 33.178701 -0.376736
2005-06-23 06:59:22 51°18.103 2°50.245 23.42 5.264212 33.179448 -0.376736
2005-06-23 06:59:26 51°18.11 2°50.222 23.4193 5.264212 33.179448 -0.376736
2005-06-23 06:59:32 51°18.121 2°50.187 23.4088 5.264001 33.177953 -0.410446
2005-06-23 06:59:37 51°18.13 2°50.159 23.4223 5.264001 33.177953 -0.376736
2005-06-23 06:59:42 51°18.139 2°50.131 23.4322 5.264001 33.178411 -0.343027
2005-06-23 06:59:47 51°18.148 2°50.102 23.4304 5.264001 33.178869 -0.376736
2005-06-23 06:59:52 51°18.156 2°50.074 23.434 5.264107 33.179616 -0.376736
2005-06-23 06:59:57 51°18.165 2°50.045 23.4225 5.264107 33.179616 -0.376736
2005-06-23 07:00:02 51°18.173 2°50.019 23.4288 5.264001 33.179326 -0.410446
2005-06-23 07:00:07 51°18.182 2°49.988 23.4382 5.264212 33.180363 -0.376736
2005-06-23 07:00:12 51°18.19 2°49.962 23.4276 5.264107 33.179616 -0.410446
2005-06-23 07:00:17 51°18.199 2°49.931 23.4161 5.264107 33.179616 -0.376736
2005-06-23 07:00:22 51°18.208 2°49.902 23.4289 5.263896 33.178579 -0.410446
2005-06-23 07:00:27 51°18.216 2°49.873 23.4298 5.263896 33.178579 -0.410446
2005-06-23 07:00:32 51°18.225 2°49.844 23.4192 5.264001 33.179326 -0.376736
2005-06-23 07:00:37 51°18.233 2°49.816 23.4242 5.264001 33.178869 -0.410446
2005-06-23 07:00:42 51°18.241 2°49.79 23.4189 5.263896 33.178579 -0.376736
2005-06-23 07:00:47 51°18.25 2°49.758 23.4395 5.263896 33.179037 -0.376736
2005-06-23 07:00:52 51°18.259 2°49.73 23.4392 5.263896 33.179037 -0.376736
2005-06-23 07:00:57 51°18.268 2°49.701 23.4395 5.263896 33.179037 -0.376736
2005-06-23 07:01:02 51°18.275 2°49.675 23.4426 5.263579 33.176795 -0.376736
2005-06-23 07:01:07 51°18.285 2°49.644 23.441 5.264001 33.180242 -0.376736
2005-06-23 07:01:11 51°18.292 2°49.621 23.4525 5.26379 33.178289 -0.410446
2005-06-23 07:01:17 51°18.302 2°49.587 23.4318 5.263896 33.179494 -0.410446
2005-06-23 07:01:22 51°18.31 2°49.558 23.4473 5.26379 33.178747 -0.376736
2005-06-23 07:01:26 51°18.317 2°49.535 23.4004 5.26379 33.178747 -0.376736
2005-06-23 07:01:32 51°18.327 2°49.503 23.4245 5.263685 33.178915 -0.376736
2005-06-23 07:01:37 51°18.336 2°49.473 23.4444 5.26379 33.179205 -0.376736
2005-06-23 07:01:42 51°18.344 2°49.447 23.4241 5.263685 33.178458 -0.376736
2005-06-23 07:01:47 51°18.354 2°49.416 23.4455 5.263685 33.178458 -0.376736
2005-06-23 07:01:51 51°18.36 2°49.393 23.4326 5.26379 33.179662 -0.376736
2005-06-23 07:01:57 51°18.371 2°49.359 23.433 5.26379 33.179662 -0.376736
2005-06-23 07:02:02 51°18.378 2°49.334 23.4267 5.263685 33.178915 -0.410446
2005-06-23 07:02:07 51°18.388 2°49.303 23.4286 5.263579 33.178168 -0.410446
2005-06-23 07:02:12 51°18.396 2°49.277 23.4338 5.263579 33.178168 -0.376736
2005-06-23 07:02:17 51°18.405 2°49.249 23.427 5.263579 33.17771 -0.376736
2005-06-23 07:02:22 51°18.414 2°49.218 23.445 5.263579 33.178168 -0.376736
2005-06-23 07:02:27 51°18.423 2°49.191 23.438 5.263579 33.178168 -0.376736
2005-06-23 07:02:32 51°18.432 2°49.163 23.4346 5.263579 33.179083 -0.376736
2005-06-23 07:02:37 51°18.441 2°49.135 23.4423 5.263579 33.178626 -0.410446
2005-06-23 07:02:42 51°18.449 2°49.11 23.4446 5.263579 33.178626 -0.410446
2005-06-23 07:02:47 51°18.459 2°49.079 23.4493 5.263473 33.178336 -0.376736
2005-06-23 07:02:52 51°18.468 2°49.051 23.4359 5.263473 33.178336 -0.376736
2005-06-23 07:02:57 51°18.477 2°49.023 23.4485 5.263473 33.178336 -0.376736
2005-06-23 07:03:02 51°18.485 2°48.997 23.4528 5.263473 33.178336 -0.376736
2005-06-23 07:03:07 51°18.494 2°48.965 23.4269 5.263368 33.178046 -0.376736
2005-06-23 07:03:11 51°18.501 2°48.942 23.4369 5.263474 33.179251 -0.410446
2005-06-23 07:03:17 51°18.511 2°48.907 23.419 5.263473 33.178794 -0.376736
2005-06-23 07:03:22 51°18.52 2°48.879 23.4146 5.263262 33.177757 -0.376736
2005-06-23 07:03:26 51°18.527 2°48.857 23.4095 5.263262 33.177757 -0.376736
2005-06-23 07:03:32 51°18.538 2°48.823 23.4295 5.263368 33.178046 -0.376736
2005-06-23 07:03:37 51°18.547 2°48.795 23.4475 5.263368 33.178504 -0.376736
2005-06-23 07:03:42 51°18.556 2°48.77 23.4532 5.263262 33.178215 -0.343027
2005-06-23 07:03:46 51°18.564 2°48.745 23.4667 5.263157 33.177925 -0.376736
2005-06-23 07:03:51 51°18.574 2°48.717 23.4611 5.263262 33.178215 -0.410446
2005-06-23 07:03:57 51°18.586 2°48.683 23.4836 5.263262 33.178215 -0.410446
2005-06-23 07:04:02 51°18.594 2°48.657 23.4391 5.263262 33.178215 -0.376736
2005-06-23 07:04:07 51°18.603 2°48.625 23.4768 5.263157 33.177925 -0.376736
2005-06-23 07:04:12 51°18.611 2°48.599 23.4532 5.263051 33.177635 -0.376736
2005-06-23 07:04:17 51°18.62 2°48.567 23.4543 5.263262 33.179588 -0.376736
2005-06-23 07:04:22 51°18.628 2°48.537 23.4523 5.263262 33.179588 -0.376736
2005-06-23 07:04:27 51°18.636 2°48.507 23.4315 5.263262 33.179588 -0.376736
2005-06-23 07:04:32 51°18.644 2°48.476 23.4424 5.263157 33.179298 -0.410446
2005-06-23 07:04:37 51°18.652 2°48.446 23.4481 5.263262 33.178672 -0.376736
2005-06-23 07:04:42 51°18.66 2°48.419 23.458 5.263051 33.177635 -0.376736
2005-06-23 07:04:47 51°18.668 2°48.386 23.4503 5.263262 33.17913 -0.410446
2005-06-23 07:04:51 51°18.675 2°48.362 23.4254 5.262946 33.177346 -0.410446
2005-06-23 07:04:57 51°18.685 2°48.326 23.4631 5.262946 33.177346 -0.410446
2005-06-23 07:05:02 51°18.692 2°48.299 23.4696 5.263157 33.179298 -0.376736
2005-06-23 07:05:07 51°18.702 2°48.267 23.4664 5.262946 33.178719 -0.376736
2005-06-23 07:05:11 51°18.708 2°48.243 23.4685 5.263157 33.180214 -0.376736
2005-06-23 07:05:17 51°18.718 2°48.207 23.468 5.263051 33.179924 -0.376736
2005-06-23 07:05:22 51°18.726 2°48.177 23.4665 5.262946 33.179177 -0.376736
2005-06-23 07:05:27 51°18.734 2°48.148 23.4721 5.262946 33.179177 -0.376736
2005-06-23 07:05:32 51°18.743 2°48.118 23.4548 5.262946 33.178719 -0.410446
2005-06-23 07:05:37 51°18.751 2°48.089 23.4607 5.262946 33.179177 -0.410446
2005-06-23 07:05:42 51°18.758 2°48.062 23.4748 5.26284 33.177972 -0.410446
2005-06-23 07:05:46 51°18.765 2°48.035 23.4442 5.262946 33.178719 -0.410446
2005-06-23 07:05:52 51°18.774 2°48 23.473 5.26284 33.178429 -0.376736
2005-06-23 07:05:57 51°18.782 2°47.97 23.4554 5.26284 33.178429 -0.376736
2005-06-23 07:06:02 51°18.789 2°47.943 23.4738 5.26284 33.178887 -0.376736
2005-06-23 07:06:07 51°18.798 2°47.911 23.476 5.262735 33.17814 -0.410446
2005-06-23 07:06:12 51°18.805 2°47.885 23.4611 5.262629 33.17785 -0.376736
2005-06-23 07:06:17 51°18.814 2°47.852 23.4624 5.262735 33.178598 -0.376736
2005-06-23 07:06:22 51°18.822 2°47.823 23.4637 5.262735 33.179055 -0.410446
2005-06-23 07:06:27 51°18.83 2°47.793 23.4744 5.262735 33.179055 -0.410446
2005-06-23 07:06:32 51°18.838 2°47.764 23.4694 5.262735 33.179055 -0.376736
2005-06-23 07:06:37 51°18.846 2°47.734 23.4671 5.262524 33.178018 -0.376736
2005-06-23 07:06:42 51°18.853 2°47.708 23.4803 5.262524 33.178018 -0.376736
2005-06-23 07:06:47 51°18.862 2°47.675 23.4633 5.262524 33.178018 -0.376736
2005-06-23 07:06:51 51°18.868 2°47.651 23.4781 5.262629 33.178766 -0.410446
2005-06-23 07:06:57 51°18.877 2°47.616 23.4793 5.262629 33.178766 -0.410446
2005-06-23 07:07:02 51°18.884 2°47.589 23.4837 5.262629 33.178766 -0.376736
2005-06-23 07:07:07 51°18.892 2°47.557 23.4675 5.262629 33.179223 -0.376736
2005-06-23 07:07:12 51°18.899 2°47.529 23.4713 5.262418 33.177729 -0.376736
2005-06-23 07:07:17 51°18.908 2°47.497 23.4568 5.262418 33.178187 -0.376736
2005-06-23 07:07:22 51°18.915 2°47.471 23.473 5.262313 33.177439 -0.376736
2005-06-23 07:07:27 51°18.924 2°47.438 23.4847 5.262313 33.177439 -0.376736
2005-06-23 07:07:32 51°18.932 2°47.409 23.468 5.262524 33.178934 -0.376736
2005-06-23 07:07:37 51°18.94 2°47.38 23.4897 5.262313 33.177897 -0.410446
2005-06-23 07:07:42 51°18.947 2°47.354 23.4836 5.262313 33.177897 -0.376736
2005-06-23 07:07:47 51°18.955 2°47.325 23.4575 5.262313 33.177897 -0.343027
2005-06-23 07:07:52 51°18.963 2°47.295 23.452 5.262102 33.177318 -0.376736
2005-06-23 07:07:57 51°18.971 2°47.266 23.4565 5.262102 33.177318 -0.376736
2005-06-23 07:08:02 51°18.979 2°47.234 23.4681 5.262207 33.178065 -0.410446
2005-06-23 07:08:06 51°18.986 2°47.211 23.4878 5.262313 33.17927 -0.410446
2005-06-23 07:08:12 51°18.996 2°47.175 23.4802 5.262207 33.177607 -0.376736
2005-06-23 07:08:17 51°19.004 2°47.147 23.4908 5.262207 33.178065 -0.410446
2005-06-23 07:08:22 51°19.011 2°47.12 23.486 5.262313 33.17927 -0.343027
2005-06-23 07:08:27 51°19.02 2°47.088 23.4935 5.262313 33.17927 -0.343027
2005-06-23 07:08:32 51°19.028 2°47.058 23.4887 5.262207 33.178981 -0.410446
2005-06-23 07:08:37 51°19.035 2°47.029 23.4796 5.262102 33.178233 -0.376736
2005-06-23 07:08:42 51°19.042 2°47.002 23.4811 5.262102 33.178691 -0.410446
2005-06-23 07:08:47 51°19.051 2°46.97 23.4814 5.261996 33.177944 -0.410446
2005-06-23 07:08:51 51°19.057 2°46.946 23.4919 5.262207 33.179439 -0.376736
2005-06-23 07:08:57 51°19.066 2°46.914 23.4941 5.262207 33.179439 -0.376736
2005-06-23 07:09:02 51°19.074 2°46.881 23.5037 5.261996 33.177944 -0.376736
2005-06-23 07:09:07 51°19.082 2°46.851 23.4982 5.262102 33.178691 -0.376736
2005-06-23 07:09:12 51°19.09 2°46.822 23.5012 5.261996 33.178402 -0.376736
2005-06-23 07:09:17 51°19.098 2°46.792 23.4687 5.262102 33.179149 -0.410446
2005-06-23 07:09:22 51°19.105 2°46.765 23.5111 5.261891 33.17857 -0.376736
2005-06-23 07:09:27 51°19.114 2°46.733 23.4929 5.261891 33.17857 -0.376736
2005-06-23 07:09:32 51°19.122 2°46.704 23.507 5.261785 33.177365 -0.376736
2005-06-23 07:09:37 51°19.13 2°46.674 23.4848 5.261785 33.177822 -0.410446
2005-06-23 07:09:42 51°19.137 2°46.647 23.5106 5.261785 33.177822 -0.410446
2005-06-23 07:09:47 51°19.146 2°46.615 23.4918 5.261785 33.177822 -0.376736
2005-06-23 07:09:52 51°19.154 2°46.585 23.5185 5.26168 33.177533 -0.376736
2005-06-23 07:09:57 51°19.162 2°46.555 23.5003 5.26168 33.177533 -0.376736
2005-06-23 07:10:02 51°19.169 2°46.529 23.503 5.261785 33.178738 -0.410446
2005-06-23 07:10:06 51°19.176 2°46.502 23.4945 5.261891 33.179486 -0.410446
2005-06-23 07:10:12 51°19.185 2°46.469 23.4889 5.261785 33.178738 -0.376736
2005-06-23 07:10:17 51°19.193 2°46.437 23.4906 5.261574 33.177243 -0.376736
2005-06-23 07:10:22 51°19.201 2°46.407 23.5049 5.26168 33.178448 -0.376736
2005-06-23 07:10:26 51°19.207 2°46.387 23.5058 5.26168 33.178448 -0.376736
2005-06-23 07:10:32 51°19.218 2°46.348 23.507 5.261469 33.176954 -0.410446
2005-06-23 07:10:37 51°19.226 2°46.318 23.4959 5.26168 33.178906 -0.410446
2005-06-23 07:10:42 51°19.233 2°46.292 23.5113 5.261574 33.178159 -0.343027
2005-06-23 07:10:46 51°19.239 2°46.268 23.5183 5.261574 33.178617 -0.410446
2005-06-23 07:10:52 51°19.249 2°46.232 23.5137 5.261574 33.179075 -0.410446
2005-06-23 07:10:57 51°19.257 2°46.199 23.4998 5.261574 33.179075 -0.410446
2005-06-23 07:11:02 51°19.265 2°46.169 23.5101 5.261469 33.178785 -0.410446
2005-06-23 07:11:07 51°19.272 2°46.139 23.4967 5.261363 33.17758 -0.410446
2005-06-23 07:11:12 51°19.28 2°46.109 23.5022 5.261363 33.17758 -0.410446
2005-06-23 07:11:17 51°19.287 2°46.082 23.5039 5.261363 33.17758 -0.376736
2005-06-23 07:11:22 51°19.295 2°46.052 23.5208 5.261258 33.176832 -0.376736
2005-06-23 07:11:27 51°19.303 2°46.023 23.5044 5.261258 33.176832 -0.376736
2005-06-23 07:11:31 51°19.31 2°45.996 23.5194 5.261258 33.17729 -0.410446
2005-06-23 07:11:37 51°19.32 2°45.96 23.5207 5.261258 33.17729 -0.410446
2005-06-23 07:11:42 51°19.328 2°45.93 23.5069 5.261258 33.177748 -0.376736
2005-06-23 07:11:47 51°19.336 2°45.9 23.5183 5.261258 33.178206 -0.376736
2005-06-23 07:11:52 51°19.344 2°45.871 23.525 5.261152 33.177 -0.376736
2005-06-23 07:11:57 51°19.353 2°45.842 23.53 5.261152 33.177 -0.376736
2005-06-23 07:12:02 51°19.36 2°45.815 23.5327 5.261047 33.177169 -0.410446
2005-06-23 07:12:07 51°19.369 2°45.783 23.5186 5.261258 33.178664 -0.410446
2005-06-23 07:12:11 51°19.376 2°45.759 23.4984 5.261047 33.177627 -0.410446
2005-06-23 07:12:17 51°19.385 2°45.723 23.493 5.261047 33.178085 -0.410446
2005-06-23 07:12:22 51°19.393 2°45.696 23.5212 5.261152 33.177916 -0.410446
2005-06-23 07:12:26 51°19.399 2°45.673 23.509 5.261152 33.177916 -0.410446
2005-06-23 07:12:32 51°19.41 2°45.634 23.5376 5.260941 33.176879 -0.410446
2005-06-23 07:12:37 51°19.418 2°45.605 23.5417 5.260941 33.176421 -0.410446
2005-06-23 07:12:42 51°19.426 2°45.578 23.5236 5.260941 33.176879 -0.410446
2005-06-23 07:12:46 51°19.432 2°45.554 23.5317 5.260941 33.177795 -0.410446
2005-06-23 07:12:52 51°19.442 2°45.519 23.5186 5.260941 33.177337 -0.410446
2005-06-23 07:12:57 51°19.451 2°45.487 23.5252 5.260941 33.177337 -0.410446
2005-06-23 07:13:02 51°19.458 2°45.461 23.5316 5.260625 33.17601 -0.410446
2005-06-23 07:13:07 51°19.467 2°45.428 23.5315 5.260836 33.177505 -0.376736
2005-06-23 07:13:11 51°19.474 2°45.404 23.5324 5.26073 33.177216 -0.410446
2005-06-23 07:13:17 51°19.484 2°45.369 23.5297 5.260836 33.177963 -0.410446
2005-06-23 07:13:22 51°19.492 2°45.342 23.5346 5.260625 33.176468 -0.410446
2005-06-23 07:13:27 51°19.501 2°45.31 23.5396 5.260625 33.176468 -0.410446
2005-06-23 07:13:32 51°19.509 2°45.281 23.5329 5.260519 33.175721 -0.376736
2005-06-23 07:13:37 51°19.517 2°45.251 23.5295 5.26073 33.177674 -0.410446
2005-06-23 07:13:42 51°19.524 2°45.223 23.5531 5.260625 33.177384 -0.376736
2005-06-23 07:13:46 51°19.53 2°45.195 23.5243 5.26073 33.17859 -0.376736
2005-06-23 07:13:52 51°19.539 2°45.161 23.5354 5.260414 33.176347 -0.376736
2005-06-23 07:13:57 51°19.547 2°45.127 23.5282 5.260414 33.176347 -0.376736
2005-06-23 07:14:02 51°19.554 2°45.096 23.5389 5.260519 33.176636 -0.410446
2005-06-23 07:14:07 51°19.561 2°45.065 23.5316 5.260308 33.175599 -0.410446
2005-06-23 07:14:12 51°19.569 2°45.033 23.5307 5.260414 33.176347 -0.410446
2005-06-23 07:14:17 51°19.576 2°45.003 23.5423 5.260414 33.176805 -0.410446
2005-06-23 07:14:22 51°19.582 2°44.976 23.5263 5.260414 33.177263 -0.410446
2005-06-23 07:14:27 51°19.59 2°44.942 23.5391 5.260414 33.177263 -0.410446
2005-06-23 07:14:32 51°19.598 2°44.911 23.5573 5.260414 33.177263 -0.376736
2005-06-23 07:14:37 51°19.605 2°44.881 23.5526 5.260308 33.176515 -0.376736
2005-06-23 07:14:42 51°19.611 2°44.854 23.5472 5.260414 33.177721 -0.410446
2005-06-23 07:14:47 51°19.619 2°44.821 23.5417 5.260308 33.177431 -0.410446
2005-06-23 07:14:51 51°19.624 2°44.796 23.527 5.260308 33.177431 -0.376736
2005-06-23 07:14:57 51°19.633 2°44.76 23.5557 5.260308 33.177431 -0.376736
2005-06-23 07:15:02 51°19.639 2°44.732 23.5546 5.260308 33.177431 -0.410446
2005-06-23 07:15:07 51°19.647 2°44.699 23.5594 5.260097 33.176394 -0.410446
2005-06-23 07:15:12 51°19.652 2°44.672 23.5338 5.260203 33.1776 -0.444155
2005-06-23 07:15:17 51°19.66 2°44.638 23.5439 5.260097 33.176394 -0.410446
2005-06-23 07:15:22 51°19.667 2°44.611 23.5458 5.259992 33.176104 -0.410446
2005-06-23 07:15:27 51°19.674 2°44.577 23.5352 5.259992 33.176104 -0.410446
2005-06-23 07:15:32 51°19.681 2°44.547 23.5702 5.260097 33.176394 -0.410446
2005-06-23 07:15:37 51°19.688 2°44.517 23.556 5.259992 33.176104 -0.410446
2005-06-23 07:15:42 51°19.695 2°44.489 23.5517 5.259992 33.176562 -0.410446
2005-06-23 07:15:46 51°19.701 2°44.461 23.5564 5.259992 33.17702 -0.410446
2005-06-23 07:15:52 51°19.709 2°44.425 23.5348 5.259992 33.176562 -0.410446
2005-06-23 07:15:56 51°19.714 2°44.403 23.5618 5.259992 33.176562 -0.410446
2005-06-23 07:16:02 51°19.722 2°44.367 23.5405 5.259886 33.176731 -0.410446
2005-06-23 07:16:07 51°19.73 2°44.333 23.5563 5.259886 33.176731 -0.376736
2005-06-23 07:16:12 51°19.736 2°44.306 23.543 5.259886 33.176273 -0.376736
2005-06-23 07:16:17 51°19.743 2°44.276 23.5475 5.259781 33.175983 -0.410446
2005-06-23 07:16:22 51°19.75 2°44.245 23.5304 5.259781 33.175983 -0.410446
2005-06-23 07:16:27 51°19.758 2°44.212 23.5559 5.259781 33.175983 -0.410446
2005-06-23 07:16:32 51°19.766 2°44.181 23.5544 5.259675 33.175693 -0.410446
2005-06-23 07:16:37 51°19.773 2°44.151 23.5673 5.259781 33.176441 -0.376736
2005-06-23 07:16:42 51°19.781 2°44.121 23.5615 5.259675 33.175693 -0.410446
2005-06-23 07:16:47 51°19.788 2°44.091 23.5658 5.259675 33.176609 -0.410446
2005-06-23 07:16:51 51°19.794 2°44.067 23.5646 5.259675 33.177068 -0.410446
2005-06-23 07:16:57 51°19.803 2°44.031 23.5683 5.259675 33.177068 -0.410446
2005-06-23 07:17:02 51°19.809 2°44.004 23.5568 5.259569 33.175862 -0.410446
2005-06-23 07:17:07 51°19.817 2°43.971 23.5647 5.259569 33.175862 -0.376736
2005-06-23 07:17:12 51°19.824 2°43.941 23.557 5.259464 33.17603 -0.376736
2005-06-23 07:17:17 51°19.831 2°43.911 23.5574 5.259464 33.17603 -0.410446
2005-06-23 07:17:22 51°19.838 2°43.884 23.5502 5.259464 33.17603 -0.410446
2005-06-23 07:17:26 51°19.843 2°43.86 23.5669 5.259464 33.17603 -0.410446
2005-06-23 07:17:31 51°19.852 2°43.827 23.5825 5.25957 33.177236 -0.410446
2005-06-23 07:17:37 51°19.86 2°43.792 23.5664 5.259253 33.174993 -0.444155
2005-06-23 07:17:42 51°19.867 2°43.765 23.5735 5.25957 33.177236 -0.376736
2005-06-23 07:17:46 51°19.873 2°43.741 23.5762 5.259253 33.175451 -0.410446
2005-06-23 07:17:52 51°19.882 2°43.705 23.5558 5.259358 33.176199 -0.410446
2005-06-23 07:17:57 51°19.89 2°43.672 23.5892 5.259358 33.176199 -0.410446
2005-06-23 07:18:02 51°19.897 2°43.646 23.5669 5.259253 33.175909 -0.376736
2005-06-23 07:18:07 51°19.905 2°43.613 23.589 5.259147 33.175161 -0.444155
2005-06-23 07:18:11 51°19.911 2°43.589 23.5626 5.259147 33.175619 -0.410446
2005-06-23 07:18:17 51°19.92 2°43.553 23.5778 5.259042 33.174872 -0.376736
2005-06-23 07:18:22 51°19.927 2°43.526 23.5542 5.259147 33.176077 -0.376736
2005-06-23 07:18:27 51°19.935 2°43.493 23.565 5.259147 33.176077 -0.376736
2005-06-23 07:18:32 51°19.942 2°43.462 23.5736 5.259147 33.176077 -0.410446
2005-06-23 07:18:37 51°19.95 2°43.432 23.5731 5.259147 33.176536 -0.376736
2005-06-23 07:18:42 51°19.956 2°43.405 23.5889 5.259147 33.176077 -0.376736
2005-06-23 07:18:47 51°19.965 2°43.372 23.58 5.259147 33.176536 -0.376736
2005-06-23 07:18:52 51°19.972 2°43.342 23.5862 5.258831 33.17475 -0.410446
2005-06-23 07:18:57 51°19.98 2°43.313 23.5865 5.258831 33.17475 -0.410446
2005-06-23 07:19:02 51°19.987 2°43.286 23.569 5.258936 33.175498 -0.410446
2005-06-23 07:19:06 51°19.993 2°43.259 23.5781 5.258936 33.175956 -0.410446
2005-06-23 07:19:12 51°20.002 2°43.223 23.5687 5.258831 33.175667 -0.376736
2005-06-23 07:19:17 51°20.01 2°43.193 23.5809 5.258831 33.176125 -0.410446
2005-06-23 07:19:22 51°20.017 2°43.163 23.5721 5.25862 33.174629 -0.410446
2005-06-23 07:19:27 51°20.025 2°43.133 23.5757 5.25862 33.174629 -0.410446
2005-06-23 07:19:32 51°20.032 2°43.106 23.5815 5.25862 33.174629 -0.410446
2005-06-23 07:19:37 51°20.04 2°43.074 23.5767 5.258514 33.173423 -0.376736
2005-06-23 07:19:42 51°20.046 2°43.047 23.5759 5.258831 33.176125 -0.376736
2005-06-23 07:19:47 51°20.055 2°43.014 23.5904 5.258409 33.173592 -0.376736
2005-06-23 07:19:52 51°20.062 2°42.984 23.5713 5.25862 33.175545 -0.410446
2005-06-23 07:19:57 51°20.07 2°42.954 23.5758 5.25862 33.175545 -0.410446
2005-06-23 07:20:02 51°20.076 2°42.927 23.5816 5.25862 33.175545 -0.410446
2005-06-23 07:20:07 51°20.084 2°42.894 23.5939 5.258725 33.176293 -0.410446
2005-06-23 07:20:12 51°20.092 2°42.863 23.556 5.258514 33.175714 -0.410446
2005-06-23 07:20:17 51°20.099 2°42.834 23.5799 5.258409 33.174508 -0.410446
2005-06-23 07:20:22 51°20.106 2°42.807 23.5816 5.258514 33.175714 -0.410446
2005-06-23 07:20:26 51°20.112 2°42.78 23.5942 5.258514 33.175714 -0.410446
2005-06-23 07:20:32 51°20.121 2°42.747 23.5979 5.258409 33.174966 -0.410446
2005-06-23 07:20:37 51°20.129 2°42.714 23.5948 5.258514 33.175714 -0.410446
2005-06-23 07:20:42 51°20.136 2°42.684 23.5978 5.258409 33.175424 -0.410446
2005-06-23 07:20:47 51°20.142 2°42.653 23.5909 5.258198 33.174845 -0.410446
2005-06-23 07:20:52 51°20.148 2°42.622 23.5954 5.258303 33.175593 -0.376736
2005-06-23 07:20:57 51°20.154 2°42.591 23.5818 5.258303 33.175593 -0.376736
2005-06-23 07:21:02 51°20.16 2°42.563 23.5992 5.258409 33.176341 -0.410446
2005-06-23 07:21:07 51°20.166 2°42.529 23.591 5.258198 33.174845 -0.410446
2005-06-23 07:21:12 51°20.172 2°42.501 23.5949 5.258303 33.175593 -0.410446
2005-06-23 07:21:17 51°20.178 2°42.467 23.5752 5.258198 33.174845 -0.444155
2005-06-23 07:21:22 51°20.184 2°42.439 23.5866 5.257987 33.173807 -0.410446
2005-06-23 07:21:27 51°20.19 2°42.405 23.5771 5.257987 33.173807 -0.410446
2005-06-23 07:21:32 51°20.196 2°42.373 23.5958 5.258092 33.175472 -0.376736
2005-06-23 07:21:37 51°20.202 2°42.342 23.5917 5.258092 33.175013 -0.410446
2005-06-23 07:21:42 51°20.207 2°42.311 23.5881 5.258092 33.175472 -0.444155
2005-06-23 07:21:46 51°20.212 2°42.286 23.5909 5.257881 33.173976 -0.410446
2005-06-23 07:21:52 51°20.219 2°42.248 23.6048 5.257881 33.173976 -0.376736
2005-06-23 07:21:57 51°20.225 2°42.217 23.5906 5.257881 33.173976 -0.376736
2005-06-23 07:22:02 51°20.231 2°42.19 23.579 5.257987 33.175182 -0.410446
2005-06-23 07:22:07 51°20.237 2°42.155 23.5939 5.257776 33.174144 -0.410446
2005-06-23 07:22:12 51°20.243 2°42.127 23.5985 5.257776 33.174144 -0.410446
2005-06-23 07:22:17 51°20.25 2°42.092 23.6156 5.257565 33.173107 -0.444155
2005-06-23 07:22:22 51°20.256 2°42.061 23.6087 5.257881 33.175809 -0.444155
2005-06-23 07:22:27 51°20.262 2°42.03 23.6214 5.257881 33.175809 -0.444155
2005-06-23 07:22:32 51°20.268 2°41.998 23.5952 5.25767 33.173855 -0.376736
2005-06-23 07:22:37 51°20.274 2°41.97 23.6107 5.257565 33.174023 -0.410446
2005-06-23 07:22:42 51°20.279 2°41.939 23.6104 5.25767 33.174771 -0.376736
2005-06-23 07:22:46 51°20.284 2°41.913 23.6063 5.257565 33.174023 -0.410446
2005-06-23 07:22:51 51°20.291 2°41.879 23.5893 5.257459 33.173733 -0.376736
2005-06-23 07:22:57 51°20.298 2°41.841 23.5914 5.257459 33.173733 -0.376736
2005-06-23 07:23:02 51°20.304 2°41.813 23.6198 5.257565 33.174481 -0.376736
2005-06-23 07:23:07 51°20.31 2°41.778 23.6153 5.257459 33.174192 -0.410446
2005-06-23 07:23:12 51°20.317 2°41.747 23.6169 5.257459 33.174192 -0.410446
2005-06-23 07:23:17 51°20.322 2°41.719 23.6228 5.25767 33.176146 -0.410446
2005-06-23 07:23:22 51°20.328 2°41.688 23.6058 5.257354 33.173902 -0.410446
2005-06-23 07:23:27 51°20.335 2°41.653 23.6133 5.257354 33.173902 -0.410446
2005-06-23 07:23:32 51°20.341 2°41.625 23.6159 5.257248 33.173612 -0.410446
2005-06-23 07:23:37 51°20.348 2°41.59 23.6198 5.257248 33.173154 -0.410446
2005-06-23 07:23:42 51°20.354 2°41.562 23.6154 5.257248 33.174071 -0.410446
2005-06-23 07:23:47 51°20.36 2°41.531 23.6211 5.257143 33.173323 -0.410446
2005-06-23 07:23:52 51°20.367 2°41.497 23.6178 5.257143 33.173781 -0.376736
2005-06-23 07:23:57 51°20.373 2°41.466 23.6189 5.257143 33.173781 -0.376736
2005-06-23 07:24:02 51°20.379 2°41.438 23.6561 5.257037 33.173033 -0.410446
2005-06-23 07:24:07 51°20.385 2°41.405 23.633 5.257354 33.175277 -0.410446
2005-06-23 07:24:12 51°20.389 2°41.376 23.6312 5.257143 33.175156 -0.444155
2005-06-23 07:24:17 51°20.394 2°41.342 23.6041 5.257037 33.174408 -0.444155
2005-06-23 07:24:22 51°20.397 2°41.31 23.6083 5.256932 33.17366 -0.410446
2005-06-23 07:24:27 51°20.401 2°41.278 23.6253 5.256932 33.17366 -0.410446
2005-06-23 07:24:32 51°20.405 2°41.246 23.6232 5.257037 33.174408 -0.376736
2005-06-23 07:24:37 51°20.407 2°41.218 23.6078 5.257143 33.174697 -0.410446
2005-06-23 07:24:42 51°20.411 2°41.182 23.6149 5.256826 33.172912 -0.444155
2005-06-23 07:24:47 51°20.414 2°41.151 23.6192 5.256721 33.17308 -0.410446
2005-06-23 07:24:52 51°20.417 2°41.118 23.6077 5.256826 33.17337 -0.410446
2005-06-23 07:24:57 51°20.42 2°41.087 23.6253 5.256826 33.17337 -0.410446
2005-06-23 07:25:02 51°20.423 2°41.058 23.6104 5.256721 33.172622 -0.410446
2005-06-23 07:25:07 51°20.426 2°41.023 23.6346 5.256826 33.173828 -0.410446
2005-06-23 07:25:12 51°20.429 2°40.994 23.6112 5.256721 33.173539 -0.410446
2005-06-23 07:25:17 51°20.432 2°40.962 23.6271 5.256615 33.172791 -0.444155
2005-06-23 07:25:22 51°20.435 2°40.927 23.6121 5.256826 33.174287 -0.410446
2005-06-23 07:25:27 51°20.438 2°40.895 23.623 5.256826 33.174287 -0.410446
2005-06-23 07:25:32 51°20.441 2°40.863 23.6191 5.25651 33.172959 -0.410446
2005-06-23 07:25:37 51°20.444 2°40.831 23.6052 5.256404 33.172211 -0.410446
2005-06-23 07:25:42 51°20.447 2°40.799 23.6311 5.256721 33.174914 -0.444155
2005-06-23 07:25:47 51°20.45 2°40.767 23.6064 5.256615 33.174624 -0.410446
2005-06-23 07:25:52 51°20.453 2°40.735 23.6086 5.256404 33.173128 -0.376736
2005-06-23 07:25:57 51°20.456 2°40.703 23.6129 5.256404 33.173128 -0.376736
2005-06-23 07:26:02 51°20.459 2°40.674 23.6161 5.256404 33.173586 -0.376736
2005-06-23 07:26:07 51°20.462 2°40.639 23.6295 5.256615 33.175082 -0.444155
2005-06-23 07:26:11 51°20.464 2°40.614 23.614 5.256404 33.173586 -0.376736
2005-06-23 07:26:17 51°20.468 2°40.575 23.6082 5.256193 33.172548 -0.444155
2005-06-23 07:26:22 51°20.47 2°40.547 23.5981 5.256404 33.173586 -0.410446
2005-06-23 07:26:26 51°20.473 2°40.518 23.6165 5.256404 33.173586 -0.410446
2005-06-23 07:26:32 51°20.477 2°40.483 23.6008 5.256404 33.174503 -0.410446
2005-06-23 07:26:37 51°20.48 2°40.448 23.633 5.256299 33.173755 -0.410446
2005-06-23 07:26:42 51°20.483 2°40.419 23.6241 5.256193 33.173007 -0.376736
2005-06-23 07:26:47 51°20.487 2°40.384 23.6255 5.256193 33.173465 -0.410446
2005-06-23 07:26:51 51°20.489 2°40.358 23.6161 5.256088 33.173175 -0.410446
2005-06-23 07:26:57 51°20.492 2°40.32 23.607 5.256088 33.173175 -0.410446
2005-06-23 07:27:02 51°20.495 2°40.291 23.6219 5.256088 33.173634 -0.410446
2005-06-23 07:27:06 51°20.497 2°40.262 23.614 5.256193 33.174382 -0.376736
2005-06-23 07:27:12 51°20.501 2°40.223 23.6343 5.256193 33.174382 -0.410446
2005-06-23 07:27:17 51°20.503 2°40.194 23.6241 5.256088 33.173634 -0.410446
2005-06-23 07:27:22 51°20.507 2°40.158 23.6358 5.256088 33.173634 -0.410446
2005-06-23 07:27:27 51°20.51 2°40.126 23.6192 5.256088 33.173634 -0.410446
2005-06-23 07:27:32 51°20.513 2°40.094 23.6431 5.255876 33.172596 -0.410446
2005-06-23 07:27:37 51°20.516 2°40.065 23.6253 5.256088 33.174551 -0.410446
2005-06-23 07:27:42 51°20.519 2°40.029 23.638 5.255982 33.174719 -0.410446
2005-06-23 07:27:47 51°20.522 2°39.997 23.6284 5.255771 33.173223 -0.410446
2005-06-23 07:27:52 51°20.525 2°39.967 23.6303 5.255665 33.172475 -0.410446
2005-06-23 07:27:57 51°20.528 2°39.932 23.6451 5.255665 33.172475 -0.410446
2005-06-23 07:28:02 51°20.531 2°39.902 23.6314 5.255771 33.173223 -0.376736
2005-06-23 07:28:07 51°20.534 2°39.866 23.6329 5.255771 33.173223 -0.410446
2005-06-23 07:28:11 51°20.537 2°39.84 23.6239 5.255665 33.172933 -0.444155
2005-06-23 07:28:17 51°20.54 2°39.801 23.645 5.255665 33.172933 -0.410446
2005-06-23 07:28:22 51°20.543 2°39.772 23.6478 5.255665 33.173392 -0.410446
2005-06-23 07:28:26 51°20.546 2°39.746 23.6376 5.255665 33.173392 -0.410446
2005-06-23 07:28:31 51°20.549 2°39.71 23.6416 5.25556 33.172644 -0.410446
2005-06-23 07:28:37 51°20.553 2°39.671 23.6414 5.255454 33.172812 -0.376736
2005-06-23 07:28:42 51°20.556 2°39.642 23.6497 5.25556 33.173561 -0.410446
2005-06-23 07:28:47 51°20.559 2°39.606 23.6463 5.255454 33.173271 -0.444155
2005-06-23 07:28:52 51°20.562 2°39.574 23.6429 5.255349 33.172064 -0.376736
2005-06-23 07:28:57 51°20.565 2°39.541 23.6511 5.255349 33.172064 -0.376736
2005-06-23 07:29:02 51°20.568 2°39.509 23.6572 5.255454 33.173271 -0.410446
2005-06-23 07:29:07 51°20.572 2°39.477 23.6493 5.255349 33.172981 -0.410446
2005-06-23 07:29:12 51°20.575 2°39.447 23.6531 5.255349 33.172981 -0.410446
2005-06-23 07:29:17 51°20.579 2°39.411 23.6606 5.255349 33.172981 -0.410446
2005-06-23 07:29:22 51°20.582 2°39.379 23.6568 5.255454 33.174188 -0.444155
2005-06-23 07:29:26 51°20.584 2°39.356 23.6577 5.255454 33.174188 -0.444155
2005-06-23 07:29:31 51°20.587 2°39.324 23.6625 5.255243 33.17315 -0.444155
2005-06-23 07:29:37 51°20.591 2°39.281 23.6603 5.255243 33.172691 -0.444155
2005-06-23 07:29:42 51°20.593 2°39.252 23.6665 5.255138 33.172402 -0.444155
2005-06-23 07:29:47 51°20.596 2°39.216 23.6582 5.255243 33.173608 -0.410446
2005-06-23 07:29:51 51°20.599 2°39.19 23.6587 5.254927 33.171364 -0.444155
2005-06-23 07:29:57 51°20.602 2°39.155 23.6614 5.254927 33.171364 -0.444155
2005-06-23 07:30:02 51°20.605 2°39.122 23.6578 5.255032 33.173029 -0.410446
2005-06-23 07:30:07 51°20.608 2°39.086 23.6475 5.254927 33.172739 -0.410446
2005-06-23 07:30:12 51°20.611 2°39.053 23.6542 5.254927 33.172739 -0.410446
2005-06-23 07:30:17 51°20.614 2°39.025 23.6556 5.254821 33.171991 -0.410446
2005-06-23 07:30:22 51°20.617 2°38.992 23.6532 5.254821 33.171991 -0.410446
2005-06-23 07:30:26 51°20.619 2°38.966 23.6589 5.254821 33.171991 -0.410446
2005-06-23 07:30:32 51°20.623 2°38.924 23.6772 5.254927 33.172739 -0.410446
2005-06-23 07:30:37 51°20.625 2°38.895 23.6629 5.254927 33.173656 -0.376736
2005-06-23 07:30:42 51°20.628 2°38.862 23.6593 5.254716 33.171701 -0.410446
2005-06-23 07:30:46 51°20.631 2°38.833 23.6557 5.254716 33.17216 -0.410446
2005-06-23 07:30:51 51°20.633 2°38.804 23.6787 5.254716 33.172618 -0.410446
2005-06-23 07:30:57 51°20.637 2°38.762 23.6662 5.254716 33.172618 -0.410446
2005-06-23 07:31:02 51°20.639 2°38.732 23.6795 5.254716 33.173077 -0.410446
2005-06-23 07:31:07 51°20.642 2°38.697 23.6719 5.25461 33.172787 -0.444155
2005-06-23 07:31:11 51°20.644 2°38.671 23.6653 5.254716 33.173077 -0.410446
2005-06-23 07:31:17 51°20.647 2°38.632 23.6465 5.254505 33.172497 -0.444155
2005-06-23 07:31:22 51°20.649 2°38.602 23.6604 5.254505 33.172497 -0.410446
2005-06-23 07:31:27 51°20.652 2°38.57 23.6853 5.254505 33.172497 -0.410446
2005-06-23 07:31:32 51°20.654 2°38.537 23.6852 5.25461 33.173246 -0.410446
2005-06-23 07:31:37 51°20.657 2°38.502 23.683 5.254399 33.172207 -0.410446
2005-06-23 07:31:42 51°20.659 2°38.469 23.6563 5.254399 33.172666 -0.410446
2005-06-23 07:31:47 51°20.662 2°38.436 23.6754 5.254294 33.172376 -0.410446
2005-06-23 07:31:52 51°20.664 2°38.407 23.672 5.254188 33.171628 -0.410446
2005-06-23 07:31:57 51°20.667 2°38.371 23.6844 5.254188 33.171628 -0.410446
2005-06-23 07:32:02 51°20.669 2°38.342 23.6756 5.254399 33.173125 -0.410446
2005-06-23 07:32:06 51°20.671 2°38.316 23.6827 5.254188 33.171628 -0.410446
2005-06-23 07:32:12 51°20.674 2°38.276 23.6875 5.254083 33.171338 -0.410446
2005-06-23 07:32:17 51°20.677 2°38.24 23.6846 5.254188 33.172087 -0.410446
2005-06-23 07:32:22 51°20.68 2°38.207 23.6668 5.254083 33.171797 -0.410446
2005-06-23 07:32:27 51°20.682 2°38.175 23.6685 5.254083 33.171797 -0.410446
2005-06-23 07:32:32 51°20.685 2°38.142 23.6815 5.254188 33.173004 -0.444155
2005-06-23 07:32:37 51°20.687 2°38.109 23.6849 5.253977 33.171507 -0.410446
2005-06-23 07:32:42 51°20.69 2°38.08 23.6838 5.253977 33.171966 -0.410446
2005-06-23 07:32:47 51°20.692 2°38.043 23.6914 5.254188 33.173004 -0.410446
2005-06-23 07:32:52 51°20.695 2°38.014 23.6862 5.253872 33.170759 -0.410446
2005-06-23 07:32:57 51°20.697 2°37.978 23.6884 5.253872 33.170759 -0.410446
2005-06-23 07:33:02 51°20.7 2°37.945 23.6834 5.253977 33.172424 -0.410446
2005-06-23 07:33:06 51°20.702 2°37.922 23.7029 5.253766 33.170927 -0.410446
2005-06-23 07:33:12 51°20.705 2°37.878 23.7025 5.253766 33.171386 -0.444155
2005-06-23 07:33:17 51°20.708 2°37.846 23.6971 5.253766 33.171845 -0.410446
2005-06-23 07:33:22 51°20.71 2°37.816 23.6867 5.253661 33.171096 -0.410446
2005-06-23 07:33:27 51°20.713 2°37.779 23.7017 5.253661 33.171096 -0.410446
2005-06-23 07:33:32 51°20.715 2°37.749 23.6962 5.253661 33.171096 -0.410446
2005-06-23 07:33:37 51°20.718 2°37.713 23.7052 5.253555 33.171265 -0.410446
2005-06-23 07:33:42 51°20.72 2°37.68 23.6658 5.25345 33.170058 -0.444155
2005-06-23 07:33:47 51°20.723 2°37.647 23.7052 5.25345 33.170517 -0.410446
2005-06-23 07:33:52 51°20.726 2°37.613 23.6909 5.253661 33.172472 -0.410446
2005-06-23 07:33:57 51°20.729 2°37.58 23.69 5.253661 33.172472 -0.410446
2005-06-23 07:34:02 51°20.731 2°37.547 23.688 5.253344 33.170686 -0.410446
2005-06-23 07:34:07 51°20.734 2°37.514 23.7025 5.25345 33.170975 -0.410446
2005-06-23 07:34:12 51°20.736 2°37.481 23.6988 5.25345 33.171434 -0.410446
2005-06-23 07:34:17 51°20.739 2°37.448 23.7157 5.253344 33.170686 -0.410446
2005-06-23 07:34:22 51°20.742 2°37.418 23.6986 5.253344 33.171603 -0.410446
2005-06-23 07:34:27 51°20.745 2°37.381 23.7005 5.253344 33.171603 -0.410446
2005-06-23 07:34:32 51°20.747 2°37.351 23.7023 5.253239 33.171313 -0.444155
2005-06-23 07:34:37 51°20.75 2°37.315 23.7021 5.253239 33.170854 -0.410446
2005-06-23 07:34:42 51°20.753 2°37.285 23.7092 5.253133 33.170565 -0.410446
2005-06-23 07:34:47 51°20.756 2°37.248 23.7038 5.253133 33.171023 -0.410446
2005-06-23 07:34:52 51°20.758 2°37.215 23.705 5.253028 33.170275 -0.410446
2005-06-23 07:34:57 51°20.76 2°37.185 23.7093 5.253028 33.170275 -0.410446
2005-06-23 07:35:02 51°20.763 2°37.152 23.7068 5.253133 33.171482 -0.410446
2005-06-23 07:35:07 51°20.765 2°37.118 23.7131 5.253133 33.171941 -0.444155
2005-06-23 07:35:12 51°20.768 2°37.085 23.707 5.253028 33.171651 -0.444155
2005-06-23 07:35:17 51°20.77 2°37.048 23.7095 5.253028 33.17211 -0.444155
2005-06-23 07:35:22 51°20.772 2°37.018 23.7076 5.252922 33.170903 -0.410446
2005-06-23 07:35:26 51°20.774 2°36.992 23.72 5.252922 33.170903 -0.410446
2005-06-23 07:35:33 51°20.777 2°36.945 23.7077 5.252922 33.171361 -0.410446
2005-06-23 07:35:37 51°20.779 2°36.915 23.7016 5.252817 33.170613 -0.444155
2005-06-23 07:35:42 51°20.782 2°36.882 23.6971 5.252817 33.170613 -0.410446
2005-06-23 07:35:47 51°20.785 2°36.849 23.7149 5.252817 33.171071 -0.410446
2005-06-23 07:35:52 51°20.787 2°36.819 23.7196 5.252817 33.17153 -0.444155
2005-06-23 07:35:58 51°20.79 2°36.779 23.7155 5.252817 33.17153 -0.444155
2005-06-23 07:36:02 51°20.792 2°36.752 23.7138 5.252711 33.17124 -0.410446
2005-06-23 07:36:07 51°20.794 2°36.716 23.7072 5.252711 33.171699 -0.410446
2005-06-23 07:36:12 51°20.797 2°36.682 23.7129 5.2525 33.169743 -0.410446
2005-06-23 07:36:17 51°20.799 2°36.653 23.7111 5.2525 33.170202 -0.410446
2005-06-23 07:36:22 51°20.801 2°36.616 23.7117 5.252606 33.171409 -0.410446
2005-06-23 07:36:27 51°20.803 2°36.583 23.7071 5.252606 33.171409 -0.410446
2005-06-23 07:36:32 51°20.805 2°36.553 23.7125 5.252606 33.171409 -0.410446
2005-06-23 07:36:37 51°20.808 2°36.517 23.7269 5.2525 33.17112 -0.410446
2005-06-23 07:36:42 51°20.81 2°36.487 23.7353 5.2525 33.170661 -0.410446
2005-06-23 07:36:47 51°20.813 2°36.451 23.7179 5.252289 33.170081 -0.410446
2005-06-23 07:36:52 51°20.816 2°36.417 23.6739 5.252183 33.169333 -0.410446
2005-06-23 07:36:57 51°20.818 2°36.384 23.6918 5.252183 33.169333 -0.410446
2005-06-23 07:37:02 51°20.822 2°36.351 23.6976 5.252184 33.17025 -0.410446
2005-06-23 07:37:07 51°20.825 2°36.319 23.7128 5.252184 33.169791 -0.444155
2005-06-23 07:37:12 51°20.828 2°36.285 23.7026 5.252289 33.17054 -0.410446
2005-06-23 07:37:17 51°20.832 2°36.253 23.7257 5.252184 33.17025 -0.376736
2005-06-23 07:37:22 51°20.835 2°36.22 23.7167 5.252184 33.171627 -0.410446
2005-06-23 07:37:26 51°20.838 2°36.197 23.7268 5.252184 33.171627 -0.410446
2005-06-23 07:37:31 51°20.842 2°36.164 23.7084 5.252078 33.170419 -0.444155
2005-06-23 07:37:37 51°20.846 2°36.122 23.7275 5.252078 33.170878 -0.410446
2005-06-23 07:37:42 51°20.85 2°36.092 23.7082 5.251972 33.170588 -0.444155
2005-06-23 07:37:47 51°20.854 2°36.056 23.7367 5.251761 33.169091 -0.410446
2005-06-23 07:37:52 51°20.858 2°36.026 23.7375 5.251972 33.170588 -0.410446
2005-06-23 07:37:57 51°20.862 2°35.991 23.7155 5.251972 33.170588 -0.410446
2005-06-23 07:38:02 51°20.865 2°35.961 23.7145 5.251867 33.16984 -0.410446
2005-06-23 07:38:07 51°20.87 2°35.925 23.7122 5.251973 33.171047 -0.410446
2005-06-23 07:38:12 51°20.873 2°35.895 23.7209 5.251761 33.170467 -0.444155
2005-06-23 07:38:17 51°20.878 2°35.86 23.7229 5.251761 33.170926 -0.410446
2005-06-23 07:38:22 51°20.881 2°35.831 23.7339 5.251656 33.170178 -0.444155
2005-06-23 07:38:27 51°20.885 2°35.795 23.713 5.251656 33.170178 -0.444155
2005-06-23 07:38:31 51°20.888 2°35.769 23.7274 5.251656 33.170178 -0.410446
2005-06-23 07:38:37 51°20.892 2°35.729 23.7149 5.251761 33.170926 -0.444155
2005-06-23 07:38:42 51°20.895 2°35.696 23.697 5.251656 33.170636 -0.410446
2005-06-23 07:38:47 51°20.899 2°35.664 23.7191 5.25155 33.170347 -0.410446
2005-06-23 07:38:51 51°20.902 2°35.638 23.7296 5.25155 33.170347 -0.410446
2005-06-23 07:38:57 51°20.906 2°35.599 23.7456 5.25155 33.170347 -0.410446
2005-06-23 07:39:02 51°20.909 2°35.569 23.7238 5.25155 33.170806 -0.410446
2005-06-23 07:39:07 51°20.913 2°35.534 23.7515 5.251445 33.169598 -0.410446
2005-06-23 07:39:12 51°20.917 2°35.501 23.7417 5.251339 33.169767 -0.410446
2005-06-23 07:39:17 51°20.92 2°35.468 23.7115 5.251339 33.170226 -0.444155
2005-06-23 07:39:22 51°20.923 2°35.435 23.7265 5.251339 33.170685 -0.410446
2005-06-23 07:39:27 51°20.927 2°35.403 23.7339 5.251339 33.170685 -0.410446
2005-06-23 07:39:32 51°20.93 2°35.373 23.7405 5.251339 33.170226 -0.410446
2005-06-23 07:39:37 51°20.934 2°35.338 23.7312 5.251339 33.170226 -0.477864
2005-06-23 07:39:42 51°20.937 2°35.305 23.7122 5.251128 33.170105 -0.410446
2005-06-23 07:39:46 51°20.94 2°35.283 23.7366 5.251234 33.170395 -0.444155
2005-06-23 07:39:51 51°20.944 2°35.25 23.7314 5.251128 33.170564 -0.444155
2005-06-23 07:39:57 51°20.948 2°35.208 23.7321 5.251128 33.170564 -0.444155
2005-06-23 07:40:02 51°20.951 2°35.179 23.7471 5.251023 33.169356 -0.410446
2005-06-23 07:40:07 51°20.955 2°35.143 23.737 5.251128 33.171023 -0.410446
2005-06-23 07:40:12 51°20.959 2°35.11 23.7347 5.250917 33.169525 -0.444155
2005-06-23 07:40:17 51°20.962 2°35.078 23.7423 5.250917 33.169525 -0.444155
2005-06-23 07:40:22 51°20.966 2°35.045 23.7274 5.251023 33.170733 -0.410446
2005-06-23 07:40:27 51°20.969 2°35.013 23.725 5.251023 33.170733 -0.410446
2005-06-23 07:40:32 51°20.973 2°34.98 23.7299 5.250812 33.169236 -0.444155
2005-06-23 07:40:37 51°20.976 2°34.948 23.7506 5.250812 33.169695 -0.410446
2005-06-23 07:40:42 51°20.98 2°34.918 23.7583 5.250812 33.170154 -0.444155
2005-06-23 07:40:47 51°20.984 2°34.882 23.758 5.250706 33.169405 -0.410446
2005-06-23 07:40:52 51°20.987 2°34.853 23.7438 5.250706 33.169405 -0.444155
2005-06-23 07:40:57 51°20.991 2°34.817 23.7477 5.250706 33.169405 -0.444155
2005-06-23 07:41:02 51°20.994 2°34.784 23.7318 5.250706 33.169864 -0.410446
2005-06-23 07:41:07 51°20.998 2°34.751 23.7418 5.250601 33.169115 -0.410446
2005-06-23 07:41:12 51°21.001 2°34.718 23.7444 5.250706 33.170323 -0.444155
2005-06-23 07:41:17 51°21.005 2°34.685 23.7582 5.25039 33.168994 -0.410446
2005-06-23 07:41:22 51°21.008 2°34.652 23.7412 5.250601 33.170492 -0.410446
2005-06-23 07:41:27 51°21.012 2°34.619 23.7577 5.250601 33.170492 -0.410446
2005-06-23 07:41:32 51°21.015 2°34.586 23.7523 5.25039 33.169453 -0.410446
2005-06-23 07:41:37 51°21.018 2°34.557 23.7601 5.250495 33.170202 -0.410446
2005-06-23 07:41:42 51°21.021 2°34.524 23.7421 5.250284 33.169163 -0.444155
2005-06-23 07:41:47 51°21.025 2°34.488 23.7451 5.250284 33.169622 -0.410446
2005-06-23 07:41:52 51°21.028 2°34.455 23.7686 5.25039 33.169912 -0.444155
2005-06-23 07:41:57 51°21.032 2°34.422 23.7542 5.25039 33.169912 -0.444155
2005-06-23 07:42:02 51°21.035 2°34.392 23.7676 5.250284 33.170081 -0.444155
2005-06-23 07:42:07 51°21.039 2°34.356 23.7661 5.250179 33.168414 -0.410446
2005-06-23 07:42:12 51°21.042 2°34.323 23.748 5.250284 33.170081 -0.444155
2005-06-23 07:42:17 51°21.046 2°34.29 23.7048 5.250284 33.169622 -0.444155
2005-06-23 07:42:22 51°21.05 2°34.257 23.6683 5.250179 33.170251 -0.410446
2005-06-23 07:42:27 51°21.055 2°34.226 23.6987 5.250179 33.170251 -0.410446
2005-06-23 07:42:32 51°21.062 2°34.195 23.6993 5.249968 33.167835 -0.410446
2005-06-23 07:42:37 51°21.07 2°34.165 23.7386 5.249968 33.167835 -0.444155
2005-06-23 07:42:42 51°21.078 2°34.139 23.7338 5.250073 33.169043 -0.376736
2005-06-23 07:42:47 51°21.089 2°34.109 23.7299 5.249862 33.168463 -0.410446
2005-06-23 07:42:51 51°21.097 2°34.087 23.6917 5.250073 33.17042 -0.444155
2005-06-23 07:42:57 51°21.109 2°34.055 23.6233 5.250073 33.17042 -0.444155
2005-06-23 07:43:02 51°21.122 2°34.032 23.6373 5.249651 33.167883 -0.410446
2005-06-23 07:43:06 51°21.132 2°34.013 23.678 5.250073 33.171338 -0.410446
2005-06-23 07:43:11 51°21.146 2°33.993 23.6915 5.249651 33.167883 -0.444155
2005-06-23 07:43:17 51°21.163 2°33.968 23.6967 5.249757 33.16955 -0.410446
2005-06-23 07:43:22 51°21.177 2°33.949 23.7265 5.249546 33.168052 -0.410446
2005-06-23 07:43:27 51°21.192 2°33.929 23.7107 5.249546 33.168052 -0.410446
2005-06-23 07:43:32 51°21.206 2°33.908 23.718 5.249651 33.170179 -0.410446
2005-06-23 07:43:37 51°21.22 2°33.887 23.7155 5.249546 33.169889 -0.410446
2005-06-23 07:43:42 51°21.232 2°33.868 23.7115 5.24944 33.16914 -0.410446
2005-06-23 07:43:47 51°21.247 2°33.844 23.7045 5.24944 33.168681 -0.410446
2005-06-23 07:43:52 51°21.261 2°33.822 23.7135 5.249546 33.16943 -0.410446
2005-06-23 07:43:57 51°21.275 2°33.8 23.7103 5.249546 33.16943 -0.410446
2005-06-23 07:44:02 51°21.287 2°33.78 23.7096 5.249546 33.16943 -0.444155
2005-06-23 07:44:07 51°21.302 2°33.756 23.7108 5.249335 33.167932 -0.410446
2005-06-23 07:44:12 51°21.315 2°33.735 23.726 5.249229 33.167642 -0.444155
2005-06-23 07:44:17 51°21.328 2°33.714 23.7168 5.24944 33.169599 -0.444155
2005-06-23 07:44:22 51°21.344 2°33.689 23.7085 5.249124 33.167811 -0.410446
2005-06-23 07:44:27 51°21.357 2°33.667 23.7089 5.249124 33.167811 -0.410446
2005-06-23 07:44:32 51°21.371 2°33.645 23.7356 5.249229 33.16856 -0.444155
2005-06-23 07:44:37 51°21.385 2°33.623 23.7256 5.249335 33.169309 -0.444155
2005-06-23 07:44:42 51°21.399 2°33.601 23.7356 5.249018 33.16798 -0.444155
2005-06-23 07:44:47 51°21.413 2°33.579 23.7163 5.249124 33.16827 -0.444155
2005-06-23 07:44:51 51°21.424 2°33.562 23.7384 5.249018 33.16798 -0.410446
2005-06-23 07:44:58 51°21.442 2°33.533 23.7257 5.249018 33.16798 -0.410446
2005-06-23 07:45:02 51°21.453 2°33.516 23.7465 5.249018 33.16798 -0.410446
2005-06-23 07:45:07 51°21.468 2°33.492 23.7369 5.248913 33.16769 -0.410446
2005-06-23 07:45:11 51°21.479 2°33.474 23.7029 5.248913 33.168149 -0.444155
2005-06-23 07:45:17 51°21.496 2°33.448 23.7222 5.249018 33.168898 -0.444155
2005-06-23 07:45:22 51°21.509 2°33.426 23.7287 5.248702 33.167111 -0.410446
2005-06-23 07:45:27 51°21.523 2°33.405 23.7389 5.248702 33.167111 -0.410446
2005-06-23 07:45:31 51°21.534 2°33.388 23.7383 5.249018 33.168898 -0.410446
2005-06-23 07:45:37 51°21.551 2°33.362 23.7339 5.248913 33.169068 -0.444155
2005-06-23 07:45:42 51°21.565 2°33.341 23.735 5.248807 33.168319 -0.410446
2005-06-23 07:45:47 51°21.578 2°33.319 23.7279 5.248702 33.168029 -0.444155
2005-06-23 07:45:52 51°21.592 2°33.298 23.74 5.248702 33.168029 -0.410446
2005-06-23 07:45:57 51°21.606 2°33.276 23.7251 5.248702 33.168029 -0.410446
2005-06-23 07:46:02 51°21.619 2°33.254 23.7373 5.248491 33.16699 -0.444155
2005-06-23 07:46:07 51°21.633 2°33.232 23.7337 5.248596 33.16728 -0.410446
2005-06-23 07:46:12 51°21.646 2°33.213 23.731 5.248385 33.166241 -0.444155
2005-06-23 07:46:17 51°21.661 2°33.19 23.7307 5.248491 33.167449 -0.444155
2005-06-23 07:46:22 51°21.675 2°33.168 23.7518 5.248491 33.167449 -0.444155
2005-06-23 07:46:27 51°21.689 2°33.147 23.7464 5.248491 33.167449 -0.444155
2005-06-23 07:46:32 51°21.703 2°33.126 23.7325 5.248385 33.167159 -0.410446
2005-06-23 07:46:37 51°21.717 2°33.105 23.7359 5.248385 33.167159 -0.410446
2005-06-23 07:46:42 51°21.731 2°33.084 23.7469 5.248385 33.167618 -0.410446
2005-06-23 07:46:47 51°21.744 2°33.063 23.7477 5.24828 33.167328 -0.444155
2005-06-23 07:46:52 51°21.758 2°33.041 23.7318 5.24828 33.167328 -0.410446
2005-06-23 07:46:57 51°21.772 2°33.02 23.7404 5.24828 33.167328 -0.410446
2005-06-23 07:47:02 51°21.786 2°32.999 23.7483 5.248385 33.168996 -0.444155
2005-06-23 07:47:07 51°21.799 2°32.977 23.7503 5.248174 33.167498 -0.444155
2005-06-23 07:47:11 51°21.81 2°32.96 23.7332 5.248174 33.167957 -0.444155
2005-06-23 07:47:17 51°21.827 2°32.935 23.7519 5.248068 33.166749 -0.410446
2005-06-23 07:47:22 51°21.84 2°32.916 23.7581 5.248174 33.167498 -0.444155
2005-06-23 07:47:27 51°21.855 2°32.892 23.7562 5.248174 33.167498 -0.444155
2005-06-23 07:47:31 51°21.867 2°32.875 23.7551 5.248069 33.167667 -0.444155
2005-06-23 07:47:37 51°21.884 2°32.85 23.7496 5.248069 33.168126 -0.444155
2005-06-23 07:47:42 51°21.896 2°32.831 23.7611 5.247857 33.167087 -0.444155
2005-06-23 07:47:47 51°21.912 2°32.807 23.7568 5.247857 33.167087 -0.444155
2005-06-23 07:47:52 51°21.926 2°32.786 23.7747 5.247857 33.167087 -0.444155
2005-06-23 07:47:57 51°21.94 2°32.765 23.7557 5.247857 33.167087 -0.444155
2005-06-23 07:48:02 51°21.952 2°32.746 23.7515 5.247857 33.167087 -0.410446
2005-06-23 07:48:07 51°21.968 2°32.723 23.7553 5.247857 33.167547 -0.444155
2005-06-23 07:48:12 51°21.982 2°32.701 23.7633 5.247646 33.166048 -0.410446
2005-06-23 07:48:17 51°21.996 2°32.68 23.7655 5.247646 33.166507 -0.410446
2005-06-23 07:48:22 51°22.009 2°32.66 23.7603 5.247646 33.166507 -0.444155
2005-06-23 07:48:27 51°22.024 2°32.637 23.76 5.247646 33.166507 -0.444155
2005-06-23 07:48:32 51°22.037 2°32.617 23.7737 5.247646 33.166507 -0.444155
2005-06-23 07:48:37 51°22.052 2°32.594 23.773 5.247646 33.166967 -0.444155
2005-06-23 07:48:42 51°22.066 2°32.572 23.7779 5.247541 33.166677 -0.444155
2005-06-23 07:48:46 51°22.078 2°32.555 23.7719 5.247541 33.166677 -0.444155
2005-06-23 07:48:52 51°22.095 2°32.529 23.7679 5.247435 33.166387 -0.410446
2005-06-23 07:48:57 51°22.109 2°32.508 23.7725 5.247435 33.166387 -0.410446
2005-06-23 07:49:02 51°22.123 2°32.486 23.7563 5.247646 33.167426 -0.410446
2005-06-23 07:49:06 51°22.133 2°32.471 23.7635 5.247224 33.165348 -0.444155
2005-06-23 07:49:11 51°22.147 2°32.45 23.7649 5.24733 33.166097 -0.410446
2005-06-23 07:49:18 51°22.167 2°32.419 23.7848 5.247435 33.166846 -0.444155
2005-06-23 07:49:22 51°22.178 2°32.402 23.7791 5.247435 33.166846 -0.444155
2005-06-23 07:49:27 51°22.194 2°32.378 23.7858 5.247435 33.166846 -0.444155
2005-06-23 07:49:31 51°22.205 2°32.361 23.781 5.24733 33.166556 -0.444155
2005-06-23 07:49:37 51°22.223 2°32.335 23.7861 5.247224 33.165807 -0.444155
2005-06-23 07:49:42 51°22.237 2°32.313 23.7956 5.24733 33.166556 -0.444155
2005-06-23 07:49:46 51°22.247 2°32.298 23.7999 5.247224 33.166266 -0.444155
2005-06-23 07:49:52 51°22.265 2°32.27 23.8182 5.246908 33.164478 -0.444155
2005-06-23 07:49:57 51°22.278 2°32.247 23.7978 5.246908 33.164478 -0.444155
2005-06-23 07:50:02 51°22.289 2°32.224 23.7998 5.247224 33.167185 -0.444155
2005-06-23 07:50:07 51°22.302 2°32.196 23.7677 5.246802 33.165566 -0.410446
2005-06-23 07:50:12 51°22.314 2°32.17 23.7914 5.247013 33.167064 -0.444155